AFR267 RKSI-LFPG
Flight info
| Callsign | AFR267 |
|---|---|
| Flight time | N/A |
| Altitude | 33000 |
| Route | NOPIK2Y NOPIK Y697 AGAVO A591 IKEKA W4 HCH W200 DOVIV W55 PAMRU W34 VYK B215 LEBOM W104 VEXEB W47 IDSOT W48 DKO W66 NUKTI B215 FKG A368 SARIN/K0900F330 N161 GASBI/N0487F330 N161 LEYLA T916 MATAL M11 REBLO UM11 CRM UM688 EKSUK UL852 NEGEM DCT ANASA DCT BEDOX DCT MODSA DCT BABEG DCT ADENU DCT NOSPA DCT BITBU DCT DIK UN857 TOLVU DCT RAPOR DCT VEDUS |
| Aircraft | A359/H-SABDE2E3GHIJ1J2J3J4J5M1P2RWXYZ/LB1D1 |
Departure
| Time | 2026-05-07 21:47 |
|---|---|
| Airport | Incheon International Airport (RKSI) |
Arrival
| Time | N/A |
|---|---|
| Airport | Charles de Gaulle International Airport (LFPG) |
| Time | Latitude | Longitude | Altitude | Speed | Heading |
|---|---|---|---|---|---|
| 2026-05-07 21:12 | 37.46729 | 126.43880 | 38 ft | 0 kts | 28° |
| 2026-05-07 21:16 | 37.46729 | 126.43879 | 38 ft | 0 kts | 28° |
| 2026-05-07 21:27 | 37.46728 | 126.43879 | 38 ft | 0 kts | 28° |
| 2026-05-07 21:33 | 37.46725 | 126.43877 | 36 ft | 3 kts | 28° |
| 2026-05-07 21:33 | 37.46701 | 126.43861 | 37 ft | 4 kts | 27° |
| 2026-05-07 21:33 | 37.46678 | 126.43845 | 38 ft | 4 kts | 36° |
| 2026-05-07 21:34 | 37.46661 | 126.43823 | 38 ft | 4 kts | 78° |
| 2026-05-07 21:34 | 37.46659 | 126.43797 | 37 ft | 4 kts | 81° |
| 2026-05-07 21:34 | 37.46652 | 126.43765 | 35 ft | 4 kts | 61° |
| 2026-05-07 21:34 | 37.46636 | 126.43737 | 37 ft | 4 kts | 47° |
| 2026-05-07 21:35 | 37.46622 | 126.43716 | 37 ft | 0 kts | 54° |
| 2026-05-07 21:38 | 37.46627 | 126.43725 | 38 ft | 3 kts | 54° |
| 2026-05-07 21:39 | 37.46645 | 126.43770 | 37 ft | 8 kts | 72° |
| 2026-05-07 21:39 | 37.46618 | 126.43849 | 38 ft | 13 kts | 141° |
| 2026-05-07 21:39 | 37.46533 | 126.43927 | 38 ft | 17 kts | 144° |
| 2026-05-07 21:39 | 37.46430 | 126.44010 | 38 ft | 17 kts | 162° |
| 2026-05-07 21:40 | 37.46340 | 126.43940 | 38 ft | 16 kts | 234° |
| 2026-05-07 21:40 | 37.46277 | 126.43828 | 38 ft | 16 kts | 234° |
| 2026-05-07 21:40 | 37.46212 | 126.43712 | 36 ft | 16 kts | 234° |
| 2026-05-07 21:40 | 37.46148 | 126.43599 | 38 ft | 16 kts | 234° |
| 2026-05-07 21:41 | 37.46084 | 126.43486 | 38 ft | 16 kts | 235° |
| 2026-05-07 21:41 | 37.46021 | 126.43372 | 38 ft | 16 kts | 235° |
| 2026-05-07 21:41 | 37.45956 | 126.43257 | 38 ft | 16 kts | 234° |
| 2026-05-07 21:41 | 37.45869 | 126.43230 | 38 ft | 14 kts | 147° |
| 2026-05-07 21:42 | 37.45788 | 126.43301 | 38 ft | 15 kts | 144° |
| 2026-05-07 21:42 | 37.45703 | 126.43376 | 38 ft | 15 kts | 145° |
| 2026-05-07 21:42 | 37.45615 | 126.43456 | 38 ft | 16 kts | 144° |
| 2026-05-07 21:42 | 37.45524 | 126.43537 | 38 ft | 16 kts | 144° |
| 2026-05-07 21:43 | 37.45428 | 126.43622 | 38 ft | 17 kts | 144° |
| 2026-05-07 21:43 | 37.45329 | 126.43711 | 38 ft | 18 kts | 144° |
| 2026-05-07 21:43 | 37.45227 | 126.43801 | 38 ft | 18 kts | 144° |
| 2026-05-07 21:43 | 37.45123 | 126.43894 | 38 ft | 19 kts | 145° |
| 2026-05-07 21:44 | 37.45014 | 126.43990 | 37 ft | 19 kts | 144° |
| 2026-05-07 21:44 | 37.44905 | 126.44087 | 38 ft | 20 kts | 144° |
| 2026-05-07 21:44 | 37.44792 | 126.44187 | 38 ft | 20 kts | 144° |
| 2026-05-07 21:44 | 37.44678 | 126.44289 | 38 ft | 20 kts | 144° |
| 2026-05-07 21:45 | 37.44565 | 126.44390 | 38 ft | 17 kts | 144° |
| 2026-05-07 21:45 | 37.44469 | 126.44375 | 38 ft | 15 kts | 233° |
| 2026-05-07 21:45 | 37.44407 | 126.44267 | 37 ft | 16 kts | 234° |
| 2026-05-07 21:45 | 37.44367 | 126.44195 | 37 ft | 0 kts | 236° |
| 2026-05-07 21:46 | 37.44365 | 126.44192 | 37 ft | 2 kts | 236° |
| 2026-05-07 21:46 | 37.44366 | 126.44156 | 37 ft | 5 kts | 300° |
| 2026-05-07 21:46 | 37.44419 | 126.44101 | 36 ft | 23 kts | 322° |
| 2026-05-07 21:46 | 37.44701 | 126.43851 | 39 ft | 75 kts | 325° |
| 2026-05-07 21:47 | 37.45268 | 126.43353 | 39 ft | 121 kts | 325° |
| 2026-05-07 21:47 | 37.46060 | 126.42649 | 39 ft | 159 kts | 323° |
| 2026-05-07 21:47 | 37.47002 | 126.41829 | 487 ft | 158 kts | 325° |
| 2026-05-07 21:47 | 37.47829 | 126.41013 | 1129 ft | 151 kts | 314° |
| 2026-05-07 21:48 | 37.48506 | 126.39923 | 1396 ft | 166 kts | 307° |
| 2026-05-07 21:48 | 37.49202 | 126.38669 | 1615 ft | 183 kts | 307° |
| 2026-05-07 21:48 | 37.50010 | 126.37323 | 1852 ft | 200 kts | 307° |
| 2026-05-07 21:48 | 37.50466 | 126.35614 | 2214 ft | 218 kts | 281° |
| 2026-05-07 21:49 | 37.50534 | 126.33646 | 2592 ft | 231 kts | 277° |
| 2026-05-07 21:49 | 37.50555 | 126.31595 | 3102 ft | 237 kts | 277° |
| 2026-05-07 21:49 | 37.50586 | 126.29503 | 3613 ft | 241 kts | 278° |
| 2026-05-07 21:49 | 37.50624 | 126.27395 | 4244 ft | 240 kts | 278° |
| 2026-05-07 21:50 | 37.50666 | 126.25292 | 4899 ft | 239 kts | 278° |
| 2026-05-07 21:50 | 37.50712 | 126.23201 | 5459 ft | 241 kts | 278° |
| 2026-05-07 21:50 | 37.50762 | 126.21072 | 6011 ft | 244 kts | 278° |
| 2026-05-07 21:50 | 37.50717 | 126.18922 | 6595 ft | 251 kts | 269° |
| 2026-05-07 21:51 | 37.50113 | 126.16799 | 7192 ft | 266 kts | 248° |
| 2026-05-07 21:51 | 37.49101 | 126.14823 | 7818 ft | 270 kts | 244° |
| 2026-05-07 21:51 | 37.48048 | 126.12869 | 8460 ft | 271 kts | 244° |
| 2026-05-07 21:51 | 37.46996 | 126.10896 | 9091 ft | 272 kts | 245° |
| 2026-05-07 21:52 | 37.45946 | 126.08911 | 9747 ft | 273 kts | 245° |
| 2026-05-07 21:52 | 37.44895 | 126.06916 | 10273 ft | 278 kts | 245° |
| 2026-05-07 21:52 | 37.43804 | 126.04828 | 10566 ft | 292 kts | 245° |
| 2026-05-07 21:52 | 37.42662 | 126.02646 | 10846 ft | 305 kts | 244° |
| 2026-05-07 21:53 | 37.41502 | 126.00358 | 11123 ft | 316 kts | 248° |
| 2026-05-07 21:53 | 37.40779 | 125.97764 | 11379 ft | 315 kts | 268° |
| 2026-05-07 21:53 | 37.40652 | 125.95020 | 11660 ft | 323 kts | 274° |
| 2026-05-07 21:53 | 37.40635 | 125.92116 | 11960 ft | 333 kts | 274° |
| 2026-05-07 21:54 | 37.40617 | 125.89172 | 12472 ft | 338 kts | 274° |
| 2026-05-07 21:54 | 37.40591 | 125.86237 | 13033 ft | 341 kts | 274° |
| 2026-05-07 21:54 | 37.40560 | 125.83211 | 13621 ft | 343 kts | 274° |
| 2026-05-07 21:54 | 37.40526 | 125.80199 | 14143 ft | 345 kts | 273° |
| 2026-05-07 21:55 | 37.40490 | 125.77175 | 14666 ft | 347 kts | 273° |
| 2026-05-07 21:55 | 37.40465 | 125.75163 | 15024 ft | 348 kts | 273° |
| 2026-05-07 21:55 | 37.40414 | 125.71110 | 15707 ft | 351 kts | 273° |
| 2026-05-07 21:55 | 37.40388 | 125.69044 | 16060 ft | 352 kts | 273° |
| 2026-05-07 21:56 | 37.40334 | 125.64953 | 16767 ft | 354 kts | 272° |
| 2026-05-07 21:56 | 37.40297 | 125.61859 | 17298 ft | 355 kts | 272° |
| 2026-05-07 21:56 | 37.40256 | 125.58743 | 17833 ft | 357 kts | 272° |
| 2026-05-07 21:56 | 37.40226 | 125.56623 | 18208 ft | 358 kts | 272° |
| 2026-05-07 21:57 | 37.40181 | 125.53533 | 18689 ft | 360 kts | 272° |
| 2026-05-07 21:57 | 37.40133 | 125.50380 | 19143 ft | 362 kts | 272° |
| 2026-05-07 21:57 | 37.40085 | 125.47228 | 19608 ft | 364 kts | 272° |
| 2026-05-07 21:57 | 37.40037 | 125.44026 | 20091 ft | 366 kts | 272° |
| 2026-05-07 21:58 | 37.39987 | 125.40829 | 20594 ft | 367 kts | 272° |
| 2026-05-07 21:58 | 37.39937 | 125.37594 | 21073 ft | 369 kts | 272° |
| 2026-05-07 21:58 | 37.39886 | 125.34360 | 21556 ft | 371 kts | 272° |
| 2026-05-07 21:58 | 37.39834 | 125.31115 | 22016 ft | 373 kts | 272° |
| 2026-05-07 21:59 | 37.39781 | 125.27840 | 22485 ft | 375 kts | 271° |
| 2026-05-07 21:59 | 37.39726 | 125.24561 | 22976 ft | 377 kts | 271° |
| 2026-05-07 21:59 | 37.39670 | 125.21252 | 23334 ft | 381 kts | 272° |
| 2026-05-07 21:59 | 37.39614 | 125.17914 | 23737 ft | 383 kts | 272° |
| 2026-05-07 22:00 | 37.39557 | 125.14558 | 24146 ft | 384 kts | 271° |
| 2026-05-07 22:00 | 37.39497 | 125.11185 | 24575 ft | 385 kts | 271° |
| 2026-05-07 22:00 | 37.39436 | 125.07820 | 24993 ft | 386 kts | 271° |
| 2026-05-07 22:00 | 37.39375 | 125.04446 | 25397 ft | 386 kts | 271° |
| 2026-05-07 22:01 | 37.39313 | 125.01068 | 25784 ft | 386 kts | 271° |
| 2026-05-07 22:01 | 37.39249 | 124.97704 | 26257 ft | 385 kts | 271° |
| 2026-05-07 22:01 | 37.39185 | 124.94319 | 26584 ft | 388 kts | 271° |
| 2026-05-07 22:01 | 37.39120 | 124.90919 | 26929 ft | 390 kts | 271° |
| 2026-05-07 22:02 | 37.39053 | 124.87504 | 27298 ft | 391 kts | 271° |
| 2026-05-07 22:02 | 37.38986 | 124.84091 | 27656 ft | 392 kts | 271° |
| 2026-05-07 22:02 | 37.38918 | 124.80651 | 28011 ft | 394 kts | 271° |
| 2026-05-07 22:02 | 37.38847 | 124.77204 | 28359 ft | 395 kts | 271° |
| 2026-05-07 22:03 | 37.38775 | 124.73750 | 28685 ft | 396 kts | 270° |
| 2026-05-07 22:03 | 37.38700 | 124.70276 | 28976 ft | 399 kts | 271° |
| 2026-05-07 22:03 | 37.38625 | 124.66778 | 29257 ft | 401 kts | 271° |
| 2026-05-07 22:03 | 37.38549 | 124.63269 | 29574 ft | 402 kts | 271° |
| 2026-05-07 22:04 | 37.38471 | 124.59751 | 29870 ft | 403 kts | 270° |
| 2026-05-07 22:04 | 37.38393 | 124.56275 | 30152 ft | 404 kts | 270° |
| 2026-05-07 22:04 | 37.38313 | 124.52699 | 30361 ft | 405 kts | 270° |
| 2026-05-07 22:04 | 37.38224 | 124.49155 | 30612 ft | 406 kts | 269° |
| 2026-05-07 22:05 | 37.37941 | 124.45656 | 30803 ft | 409 kts | 264° |
| 2026-05-07 22:05 | 37.37311 | 124.42163 | 31087 ft | 412 kts | 258° |
| 2026-05-07 22:05 | 37.36309 | 124.38773 | 31382 ft | 417 kts | 251° |
| 2026-05-07 22:05 | 37.34944 | 124.35531 | 31628 ft | 421 kts | 246° |
| 2026-05-07 22:06 | 37.33437 | 124.32383 | 31877 ft | 422 kts | 245° |
| 2026-05-07 22:06 | 37.31866 | 124.29249 | 32129 ft | 423 kts | 244° |
| 2026-05-07 22:06 | 37.30280 | 124.26145 | 32371 ft | 422 kts | 244° |
| 2026-05-07 22:06 | 37.28697 | 124.23055 | 32604 ft | 422 kts | 244° |
| 2026-05-07 22:07 | 37.27108 | 124.19944 | 32814 ft | 423 kts | 244° |
| 2026-05-07 22:07 | 37.25533 | 124.16841 | 32971 ft | 422 kts | 244° |
| 2026-05-07 22:07 | 37.23955 | 124.13723 | 33089 ft | 422 kts | 244° |
| 2026-05-07 22:07 | 37.22374 | 124.10618 | 33093 ft | 424 kts | 244° |
| 2026-05-07 22:08 | 37.19091 | 124.04442 | 33088 ft | 426 kts | 243° |
| 2026-05-07 22:08 | 37.15770 | 123.98290 | 33095 ft | 426 kts | 243° |
| 2026-05-07 22:09 | 37.12539 | 123.92091 | 33095 ft | 424 kts | 244° |
| 2026-05-07 22:09 | 37.09360 | 123.85870 | 33103 ft | 424 kts | 244° |
| 2026-05-07 22:10 | 37.06170 | 123.79660 | 33101 ft | 424 kts | 244° |
| 2026-05-07 22:10 | 37.02967 | 123.73462 | 33103 ft | 424 kts | 244° |
| 2026-05-07 22:11 | 36.99772 | 123.67312 | 33110 ft | 417 kts | 245° |
| 2026-05-07 22:11 | 36.96618 | 123.61251 | 33107 ft | 415 kts | 245° |
| 2026-05-07 22:12 | 36.93470 | 123.55196 | 33108 ft | 416 kts | 245° |
| 2026-05-07 22:12 | 36.91896 | 123.52167 | 32585 ft | 415 kts | 238° |
| 2026-05-07 22:12 | 36.90314 | 123.49139 | 33178 ft | 418 kts | 245° |
| 2026-05-07 22:13 | 36.87304 | 123.42996 | 33107 ft | 405 kts | 251° |
| 2026-05-07 22:13 | 36.85474 | 123.36536 | 33266 ft | 388 kts | 263° |
| 2026-05-07 22:14 | 36.85100 | 123.33274 | 33603 ft | 381 kts | 268° |
| 2026-05-07 22:14 | 36.85068 | 123.29955 | 33988 ft | 375 kts | 274° |
| 2026-05-07 22:14 | 36.85365 | 123.26784 | 34256 ft | 373 kts | 279° |
| 2026-05-07 22:14 | 36.85968 | 123.23615 | 34388 ft | 375 kts | 283° |
| 2026-05-07 22:15 | 36.87447 | 123.17365 | 34605 ft | 377 kts | 284° |
| 2026-05-07 22:15 | 36.88220 | 123.14251 | 34720 ft | 379 kts | 285° |
| 2026-05-07 22:15 | 36.89010 | 123.11063 | 34657 ft | 383 kts | 285° |
| 2026-05-07 22:16 | 36.89782 | 123.07916 | 34780 ft | 383 kts | 285° |
| 2026-05-07 22:16 | 36.90564 | 123.04699 | 34940 ft | 383 kts | 285° |
| 2026-05-07 22:16 | 36.91332 | 123.01520 | 35074 ft | 383 kts | 284° |
| 2026-05-07 22:16 | 36.92101 | 122.98312 | 35120 ft | 385 kts | 284° |
| 2026-05-07 22:17 | 36.93643 | 122.91858 | 35128 ft | 390 kts | 284° |
| 2026-05-07 22:17 | 36.95191 | 122.85359 | 35128 ft | 391 kts | 285° |
| 2026-05-07 22:18 | 36.97519 | 122.75569 | 35132 ft | 392 kts | 285° |
| 2026-05-07 22:19 | 36.99068 | 122.69033 | 35130 ft | 392 kts | 285° |
| 2026-05-07 22:19 | 37.00614 | 122.62487 | 35130 ft | 392 kts | 285° |
| 2026-05-07 22:20 | 37.02157 | 122.55936 | 35135 ft | 393 kts | 285° |
| 2026-05-07 22:20 | 37.03701 | 122.49367 | 35135 ft | 394 kts | 285° |
| 2026-05-07 22:21 | 37.05243 | 122.42787 | 35135 ft | 394 kts | 285° |
| 2026-05-07 22:21 | 37.07172 | 122.36374 | 35137 ft | 396 kts | 294° |
| 2026-05-07 22:22 | 37.10319 | 122.30637 | 35138 ft | 406 kts | 307° |
| 2026-05-07 22:22 | 37.14534 | 122.25822 | 35137 ft | 410 kts | 310° |
| 2026-05-07 22:23 | 37.18195 | 122.20445 | 35138 ft | 401 kts | 298° |
| 2026-05-07 22:23 | 37.20593 | 122.14209 | 35143 ft | 397 kts | 288° |
| 2026-05-07 22:24 | 37.22366 | 122.07650 | 35141 ft | 397 kts | 287° |
| 2026-05-07 22:24 | 37.24043 | 122.01027 | 35140 ft | 400 kts | 287° |
| 2026-05-07 22:25 | 37.25736 | 121.94370 | 35144 ft | 400 kts | 287° |
| 2026-05-07 22:25 | 37.27442 | 121.87720 | 35143 ft | 400 kts | 287° |
| 2026-05-07 22:26 | 37.29151 | 121.81069 | 35140 ft | 400 kts | 287° |
| 2026-05-07 22:26 | 37.30857 | 121.74413 | 35140 ft | 401 kts | 288° |
| 2026-05-07 22:27 | 37.32566 | 121.67730 | 35148 ft | 401 kts | 288° |
| 2026-05-07 22:27 | 37.34267 | 121.61056 | 35146 ft | 401 kts | 288° |
| 2026-05-07 22:28 | 37.35965 | 121.54375 | 35150 ft | 401 kts | 287° |
| 2026-05-07 22:28 | 37.37658 | 121.47695 | 35151 ft | 401 kts | 288° |
| 2026-05-07 22:29 | 37.39347 | 121.41017 | 35146 ft | 400 kts | 288° |
| 2026-05-07 22:29 | 37.41028 | 121.34350 | 35151 ft | 400 kts | 288° |
| 2026-05-07 22:30 | 37.42696 | 121.27717 | 35151 ft | 400 kts | 288° |
| 2026-05-07 22:30 | 37.44371 | 121.21041 | 35147 ft | 400 kts | 288° |
| 2026-05-07 22:31 | 37.46099 | 121.14402 | 35154 ft | 399 kts | 290° |
| 2026-05-07 22:31 | 37.48189 | 121.07932 | 35148 ft | 399 kts | 292° |
| 2026-05-07 22:32 | 37.50344 | 121.01488 | 35154 ft | 399 kts | 292° |
| 2026-05-07 22:32 | 37.52443 | 120.95023 | 34612 ft | 399 kts | 287° |
| 2026-05-07 22:32 | 37.53474 | 120.91784 | 34832 ft | 397 kts | 286° |
| 2026-05-07 22:33 | 37.54492 | 120.88569 | 35066 ft | 395 kts | 286° |
| 2026-05-07 22:33 | 37.56525 | 120.82117 | 35151 ft | 400 kts | 286° |
| 2026-05-07 22:34 | 37.58592 | 120.75543 | 35149 ft | 406 kts | 286° |
| 2026-05-07 22:34 | 37.60740 | 120.68909 | 35149 ft | 410 kts | 287° |
| 2026-05-07 22:35 | 37.62938 | 120.62286 | 35148 ft | 409 kts | 287° |
| 2026-05-07 22:35 | 37.65156 | 120.55666 | 35147 ft | 410 kts | 289° |
| 2026-05-07 22:36 | 37.67880 | 120.49286 | 35143 ft | 414 kts | 292° |
| 2026-05-07 22:36 | 37.70746 | 120.42976 | 35143 ft | 415 kts | 293° |
| 2026-05-07 22:37 | 37.73632 | 120.36678 | 35153 ft | 414 kts | 293° |
| 2026-05-07 22:37 | 37.76503 | 120.30386 | 35148 ft | 413 kts | 293° |
| 2026-05-07 22:38 | 37.79360 | 120.24095 | 35146 ft | 412 kts | 292° |
| 2026-05-07 22:38 | 37.82207 | 120.17805 | 35147 ft | 412 kts | 292° |
| 2026-05-07 22:39 | 37.85053 | 120.11505 | 35146 ft | 412 kts | 292° |
| 2026-05-07 22:39 | 37.87895 | 120.05207 | 35145 ft | 411 kts | 292° |
| 2026-05-07 22:40 | 37.90727 | 119.98918 | 35143 ft | 411 kts | 292° |
| 2026-05-07 22:40 | 37.93553 | 119.92628 | 35142 ft | 411 kts | 292° |
| 2026-05-07 22:41 | 37.96372 | 119.86340 | 35140 ft | 411 kts | 292° |
| 2026-05-07 22:41 | 37.99192 | 119.80042 | 35166 ft | 410 kts | 292° |
| 2026-05-07 22:42 | 38.01992 | 119.73781 | 35143 ft | 407 kts | 292° |
| 2026-05-07 22:42 | 38.04774 | 119.67538 | 35146 ft | 406 kts | 291° |
| 2026-05-07 22:43 | 38.07081 | 119.62350 | 35145 ft | 406 kts | 291° |
| 2026-05-07 22:43 | 38.09857 | 119.56101 | 35146 ft | 406 kts | 291° |
| 2026-05-07 22:44 | 38.12267 | 119.49713 | 35154 ft | 398 kts | 286° |
| 2026-05-07 22:44 | 38.14413 | 119.43243 | 35146 ft | 396 kts | 285° |
| 2026-05-07 22:45 | 38.16504 | 119.36784 | 35145 ft | 396 kts | 285° |
| 2026-05-07 22:45 | 38.18595 | 119.30314 | 35147 ft | 396 kts | 285° |
| 2026-05-07 22:46 | 38.20690 | 119.23843 | 35155 ft | 396 kts | 285° |
| 2026-05-07 22:46 | 38.22779 | 119.17384 | 35137 ft | 395 kts | 285° |
| 2026-05-07 22:47 | 38.24859 | 119.10940 | 35154 ft | 395 kts | 285° |
| 2026-05-07 22:47 | 38.26937 | 119.04484 | 35156 ft | 394 kts | 285° |
| 2026-05-07 22:48 | 38.29015 | 118.98017 | 35149 ft | 394 kts | 285° |
| 2026-05-07 22:48 | 38.31085 | 118.91557 | 35146 ft | 394 kts | 285° |
| 2026-05-07 22:49 | 38.33153 | 118.85090 | 35163 ft | 394 kts | 285° |
| 2026-05-07 22:49 | 38.35201 | 118.78673 | 35149 ft | 394 kts | 285° |
| 2026-05-07 22:50 | 38.37266 | 118.72206 | 35150 ft | 394 kts | 285° |
| 2026-05-07 22:50 | 38.39331 | 118.65744 | 35181 ft | 394 kts | 285° |
| 2026-05-07 22:51 | 38.41386 | 118.59298 | 35154 ft | 392 kts | 285° |
| 2026-05-07 22:51 | 38.43435 | 118.52856 | 35154 ft | 392 kts | 285° |
| 2026-05-07 22:52 | 38.45477 | 118.46417 | 35156 ft | 392 kts | 285° |
| 2026-05-07 22:52 | 38.47518 | 118.39973 | 35152 ft | 392 kts | 285° |
| 2026-05-07 22:53 | 38.49556 | 118.33532 | 35161 ft | 390 kts | 285° |
| 2026-05-07 22:53 | 38.51567 | 118.27139 | 35156 ft | 388 kts | 285° |
| 2026-05-07 22:54 | 38.53578 | 118.20729 | 35154 ft | 388 kts | 285° |
| 2026-05-07 22:54 | 38.55583 | 118.14324 | 35157 ft | 388 kts | 285° |
| 2026-05-07 22:55 | 38.57591 | 118.07928 | 35151 ft | 389 kts | 287° |
| 2026-05-07 22:55 | 38.60261 | 118.01840 | 35154 ft | 401 kts | 297° |
| 2026-05-07 22:56 | 38.63969 | 117.96395 | 35163 ft | 409 kts | 303° |
| 2026-05-07 22:56 | 38.67919 | 117.91130 | 35157 ft | 410 kts | 303° |
| 2026-05-07 22:57 | 38.71886 | 117.85895 | 35188 ft | 410 kts | 303° |
| 2026-05-07 22:57 | 38.75845 | 117.80623 | 35151 ft | 411 kts | 303° |
| 2026-05-07 22:58 | 38.79796 | 117.75325 | 35151 ft | 411 kts | 303° |
| 2026-05-07 22:58 | 38.83741 | 117.70021 | 35151 ft | 411 kts | 303° |
| 2026-05-07 22:59 | 38.87682 | 117.64715 | 35145 ft | 411 kts | 303° |
| 2026-05-07 22:59 | 38.91620 | 117.59404 | 35133 ft | 411 kts | 303° |
| 2026-05-07 23:00 | 38.95556 | 117.54088 | 35105 ft | 411 kts | 302° |
| 2026-05-07 23:00 | 38.99447 | 117.48818 | 35132 ft | 410 kts | 311° |
| 2026-05-07 23:01 | 39.03408 | 117.43445 | 35187 ft | 413 kts | 302° |
| 2026-05-07 23:01 | 39.06693 | 117.37612 | 35158 ft | 394 kts | 290° |
| 2026-05-07 23:02 | 39.08646 | 117.31170 | 35157 ft | 382 kts | 278° |
| 2026-05-07 23:02 | 39.09664 | 117.24482 | 35157 ft | 380 kts | 276° |
| 2026-05-07 23:03 | 39.10534 | 117.17766 | 35138 ft | 380 kts | 275° |
| 2026-05-07 23:03 | 39.11397 | 117.11043 | 35137 ft | 381 kts | 276° |
| 2026-05-07 23:04 | 39.12277 | 117.04317 | 35130 ft | 381 kts | 276° |
| 2026-05-07 23:04 | 39.13168 | 116.97591 | 35140 ft | 381 kts | 276° |
| 2026-05-07 23:05 | 39.14198 | 116.90891 | 35134 ft | 382 kts | 277° |
| 2026-05-07 23:05 | 39.15287 | 116.84196 | 35147 ft | 382 kts | 277° |
| 2026-05-07 23:06 | 39.16357 | 116.77487 | 35136 ft | 382 kts | 277° |
| 2026-05-07 23:06 | 39.17404 | 116.70786 | 35136 ft | 382 kts | 277° |
| 2026-05-07 23:07 | 39.18437 | 116.64084 | 35137 ft | 381 kts | 276° |
| 2026-05-07 23:07 | 39.18848 | 116.57326 | 35131 ft | 377 kts | 266° |
| 2026-05-07 23:08 | 39.18012 | 116.50653 | 35139 ft | 379 kts | 257° |
| 2026-05-07 23:08 | 39.16558 | 116.44100 | 35142 ft | 381 kts | 256° |
| 2026-05-07 23:09 | 39.15016 | 116.37574 | 35141 ft | 381 kts | 256° |
| 2026-05-07 23:09 | 39.13481 | 116.31053 | 35139 ft | 381 kts | 256° |
| 2026-05-07 23:10 | 39.11959 | 116.24526 | 35164 ft | 381 kts | 256° |
| 2026-05-07 23:10 | 39.10438 | 116.17993 | 35141 ft | 381 kts | 256° |
| 2026-05-07 23:11 | 39.08913 | 116.11458 | 35144 ft | 381 kts | 256° |
| 2026-05-07 23:11 | 39.07386 | 116.04938 | 35144 ft | 381 kts | 256° |
| 2026-05-07 23:12 | 39.05852 | 115.98410 | 35147 ft | 381 kts | 256° |
| 2026-05-07 23:12 | 39.04315 | 115.91887 | 35148 ft | 381 kts | 256° |
| 2026-05-07 23:13 | 39.02775 | 115.85366 | 35149 ft | 381 kts | 256° |
| 2026-05-07 23:13 | 39.01231 | 115.78848 | 35114 ft | 381 kts | 256° |
| 2026-05-07 23:14 | 38.99683 | 115.72329 | 35146 ft | 380 kts | 256° |
| 2026-05-07 23:14 | 38.98134 | 115.65827 | 35148 ft | 381 kts | 256° |
| 2026-05-07 23:15 | 38.96580 | 115.59328 | 35143 ft | 380 kts | 256° |
| 2026-05-07 23:15 | 38.95036 | 115.52887 | 35143 ft | 380 kts | 256° |
| 2026-05-07 23:16 | 38.93067 | 115.46505 | 35151 ft | 383 kts | 251° |
| 2026-05-07 23:16 | 38.90920 | 115.40303 | 35150 ft | 383 kts | 251° |
| 2026-05-07 23:17 | 38.88705 | 115.34024 | 35143 ft | 384 kts | 251° |
| 2026-05-07 23:17 | 38.86504 | 115.27791 | 35153 ft | 384 kts | 251° |
| 2026-05-07 23:18 | 38.84319 | 115.21598 | 35156 ft | 383 kts | 251° |
| 2026-05-07 23:18 | 38.82120 | 115.15367 | 35156 ft | 383 kts | 251° |
| 2026-05-07 23:19 | 38.79918 | 115.09140 | 35159 ft | 383 kts | 251° |
| 2026-05-07 23:19 | 38.77711 | 115.02913 | 35090 ft | 384 kts | 251° |
| 2026-05-07 23:20 | 38.75497 | 114.96680 | 35190 ft | 387 kts | 253° |
| 2026-05-07 23:20 | 38.73251 | 114.90350 | 35194 ft | 394 kts | 253° |
| 2026-05-07 23:21 | 38.70958 | 114.83893 | 35194 ft | 402 kts | 253° |
| 2026-05-07 23:21 | 38.68614 | 114.77317 | 35194 ft | 410 kts | 253° |
| 2026-05-07 23:22 | 38.66219 | 114.70619 | 35197 ft | 417 kts | 253° |
| 2026-05-07 23:22 | 38.63780 | 114.63819 | 35193 ft | 424 kts | 253° |
| 2026-05-07 23:23 | 38.61296 | 114.56933 | 35195 ft | 427 kts | 252° |
| 2026-05-07 23:23 | 38.58790 | 114.50066 | 35195 ft | 426 kts | 252° |
| 2026-05-07 23:24 | 38.56297 | 114.43200 | 35198 ft | 426 kts | 253° |
| 2026-05-07 23:24 | 38.53807 | 114.36320 | 35192 ft | 426 kts | 253° |
| 2026-05-07 23:25 | 38.51318 | 114.29463 | 35195 ft | 426 kts | 253° |
| 2026-05-07 23:25 | 38.48818 | 114.22600 | 35200 ft | 426 kts | 253° |
| 2026-05-07 23:26 | 38.46328 | 114.15781 | 35201 ft | 426 kts | 253° |
| 2026-05-07 23:26 | 38.43822 | 114.08937 | 35200 ft | 426 kts | 252° |
| 2026-05-07 23:27 | 38.40050 | 113.98647 | 35203 ft | 426 kts | 252° |
| 2026-05-07 23:27 | 38.37535 | 113.91798 | 35191 ft | 426 kts | 252° |
| 2026-05-07 23:28 | 38.35029 | 113.85007 | 35215 ft | 421 kts | 252° |
| 2026-05-07 23:28 | 38.33801 | 113.81685 | 35456 ft | 418 kts | 252° |
| 2026-05-07 23:28 | 38.32556 | 113.78357 | 35751 ft | 415 kts | 252° |
| 2026-05-07 23:29 | 38.31714 | 113.76123 | 35915 ft | 413 kts | 252° |
| 2026-05-07 23:29 | 38.30473 | 113.72837 | 36085 ft | 412 kts | 252° |
| 2026-05-07 23:29 | 38.27984 | 113.66252 | 36308 ft | 412 kts | 252° |
| 2026-05-07 23:30 | 38.26336 | 113.61895 | 36469 ft | 412 kts | 252° |
| 2026-05-07 23:30 | 38.25500 | 113.59687 | 36577 ft | 411 kts | 252° |
| 2026-05-07 23:30 | 38.23024 | 113.53161 | 36982 ft | 406 kts | 252° |
| 2026-05-07 23:31 | 38.21403 | 113.48900 | 37209 ft | 404 kts | 252° |
| 2026-05-07 23:31 | 38.20577 | 113.46723 | 37216 ft | 405 kts | 252° |
| 2026-05-07 23:31 | 38.18115 | 113.40242 | 37220 ft | 409 kts | 251° |
| 2026-05-07 23:32 | 38.15637 | 113.33718 | 37229 ft | 412 kts | 251° |
| 2026-05-07 23:32 | 38.13198 | 113.27177 | 37231 ft | 412 kts | 252° |
| 2026-05-07 23:33 | 38.10755 | 113.20605 | 37243 ft | 412 kts | 252° |
| 2026-05-07 23:33 | 38.08310 | 113.14059 | 37240 ft | 409 kts | 251° |
| 2026-05-07 23:34 | 38.05870 | 113.07556 | 37248 ft | 409 kts | 251° |
| 2026-05-07 23:34 | 38.03421 | 113.01034 | 37245 ft | 410 kts | 251° |
| 2026-05-07 23:35 | 38.00965 | 112.94507 | 37253 ft | 410 kts | 251° |
| 2026-05-07 23:35 | 37.98511 | 112.88004 | 37249 ft | 410 kts | 251° |
| 2026-05-07 23:36 | 37.96048 | 112.81492 | 37237 ft | 409 kts | 251° |
| 2026-05-07 23:36 | 37.93584 | 112.74992 | 37251 ft | 409 kts | 251° |
| 2026-05-07 23:37 | 37.91121 | 112.68505 | 37271 ft | 409 kts | 251° |
| 2026-05-07 23:37 | 37.88647 | 112.62005 | 37267 ft | 409 kts | 251° |
| 2026-05-07 23:38 | 37.86145 | 112.55530 | 37269 ft | 411 kts | 249° |
| 2026-05-07 23:38 | 37.83436 | 112.49156 | 37250 ft | 412 kts | 248° |
| 2026-05-07 23:39 | 37.80690 | 112.42801 | 37258 ft | 411 kts | 249° |
| 2026-05-07 23:39 | 37.78662 | 112.36156 | 37258 ft | 401 kts | 261° |
| 2026-05-07 23:40 | 37.78079 | 112.29226 | 37261 ft | 395 kts | 274° |
| 2026-05-07 23:40 | 37.78599 | 112.22300 | 37258 ft | 396 kts | 277° |
| 2026-05-07 23:41 | 37.79298 | 112.15403 | 37256 ft | 396 kts | 277° |
| 2026-05-07 23:41 | 37.79998 | 112.08503 | 37258 ft | 397 kts | 277° |
| 2026-05-07 23:42 | 37.80670 | 112.01572 | 37257 ft | 397 kts | 277° |
| 2026-05-07 23:42 | 37.81327 | 111.94641 | 37263 ft | 397 kts | 277° |
| 2026-05-07 23:43 | 37.81980 | 111.87701 | 37270 ft | 397 kts | 277° |
| 2026-05-07 23:43 | 37.82628 | 111.80772 | 37267 ft | 397 kts | 277° |
| 2026-05-07 23:44 | 37.83274 | 111.73833 | 37286 ft | 398 kts | 277° |
| 2026-05-07 23:44 | 37.83952 | 111.66888 | 37282 ft | 399 kts | 277° |
| 2026-05-07 23:45 | 37.84757 | 111.59933 | 37280 ft | 399 kts | 280° |
| 2026-05-07 23:45 | 37.86393 | 111.53220 | 37290 ft | 402 kts | 291° |
| 2026-05-07 23:46 | 37.89392 | 111.47204 | 37287 ft | 410 kts | 305° |
| 2026-05-07 23:46 | 37.93639 | 111.42236 | 37298 ft | 420 kts | 314° |
| 2026-05-07 23:47 | 37.98258 | 111.37681 | 37306 ft | 421 kts | 315° |
| 2026-05-07 23:47 | 38.02882 | 111.33192 | 37309 ft | 421 kts | 315° |
| 2026-05-07 23:48 | 38.07541 | 111.28623 | 37320 ft | 421 kts | 315° |
| 2026-05-07 23:48 | 38.12163 | 111.24053 | 37321 ft | 421 kts | 315° |
| 2026-05-07 23:49 | 38.16737 | 111.19515 | 37338 ft | 420 kts | 315° |
| 2026-05-07 23:49 | 38.21354 | 111.14928 | 37337 ft | 421 kts | 315° |
| 2026-05-07 23:50 | 38.25965 | 111.10338 | 37343 ft | 422 kts | 315° |
| 2026-05-07 23:50 | 38.30590 | 111.05730 | 37345 ft | 422 kts | 315° |
| 2026-05-07 23:51 | 38.35217 | 111.01113 | 37345 ft | 422 kts | 315° |
| 2026-05-07 23:51 | 38.39825 | 110.96506 | 37348 ft | 421 kts | 315° |
| 2026-05-07 23:52 | 38.44435 | 110.91886 | 37347 ft | 421 kts | 315° |
| 2026-05-07 23:52 | 38.49029 | 110.87279 | 37347 ft | 421 kts | 315° |
| 2026-05-07 23:53 | 38.53625 | 110.82658 | 37346 ft | 421 kts | 315° |
| 2026-05-07 23:53 | 38.58218 | 110.78037 | 37347 ft | 422 kts | 315° |
| 2026-05-07 23:54 | 38.62847 | 110.73373 | 37355 ft | 421 kts | 315° |
| 2026-05-07 23:54 | 38.67446 | 110.68730 | 37348 ft | 421 kts | 315° |
| 2026-05-07 23:55 | 38.72038 | 110.64085 | 37350 ft | 421 kts | 315° |
| 2026-05-07 23:55 | 38.76629 | 110.59432 | 37354 ft | 421 kts | 315° |
| 2026-05-07 23:56 | 38.81194 | 110.54798 | 37356 ft | 421 kts | 315° |
| 2026-05-07 23:56 | 38.85784 | 110.50132 | 37370 ft | 421 kts | 315° |
| 2026-05-07 23:57 | 38.90367 | 110.45466 | 37358 ft | 420 kts | 315° |
| 2026-05-07 23:57 | 38.94932 | 110.40809 | 37355 ft | 420 kts | 315° |
| 2026-05-07 23:58 | 38.99526 | 110.36155 | 37354 ft | 420 kts | 315° |
| 2026-05-07 23:58 | 39.04137 | 110.31518 | 37355 ft | 420 kts | 315° |
| 2026-05-07 23:59 | 39.08743 | 110.26877 | 37354 ft | 420 kts | 315° |
| 2026-05-07 23:59 | 39.13298 | 110.22105 | 37362 ft | 416 kts | 311° |
| 2026-05-08 00:00 | 39.16924 | 110.16454 | 37351 ft | 406 kts | 298° |
| 2026-05-08 00:00 | 39.19192 | 110.09915 | 37357 ft | 402 kts | 285° |
| 2026-05-08 00:01 | 39.20063 | 110.02790 | 37365 ft | 403 kts | 276° |
| 2026-05-08 00:01 | 39.20419 | 109.95568 | 37359 ft | 404 kts | 275° |
| 2026-05-08 00:02 | 39.20715 | 109.88341 | 37359 ft | 404 kts | 275° |
| 2026-05-08 00:02 | 39.21029 | 109.81110 | 37358 ft | 404 kts | 275° |
| 2026-05-08 00:03 | 39.21357 | 109.73865 | 37363 ft | 404 kts | 275° |
| 2026-05-08 00:03 | 39.21685 | 109.66624 | 37351 ft | 405 kts | 275° |
| 2026-05-08 00:04 | 39.22009 | 109.59359 | 37363 ft | 406 kts | 274° |
| 2026-05-08 00:04 | 39.22328 | 109.52095 | 37358 ft | 406 kts | 274° |
| 2026-05-08 00:05 | 39.22639 | 109.44825 | 37350 ft | 406 kts | 274° |
| 2026-05-08 00:05 | 39.22913 | 109.37550 | 37355 ft | 407 kts | 274° |
| 2026-05-08 00:06 | 39.23180 | 109.30256 | 37354 ft | 407 kts | 274° |
| 2026-05-08 00:06 | 39.23448 | 109.22965 | 37346 ft | 407 kts | 274° |
| 2026-05-08 00:07 | 39.23715 | 109.15670 | 37347 ft | 407 kts | 274° |
| 2026-05-08 00:07 | 39.23978 | 109.08378 | 37342 ft | 408 kts | 274° |
| 2026-05-08 00:08 | 39.24237 | 109.01057 | 37343 ft | 408 kts | 274° |
| 2026-05-08 00:08 | 39.24491 | 108.93738 | 37336 ft | 408 kts | 274° |
| 2026-05-08 00:09 | 39.24740 | 108.86420 | 37336 ft | 408 kts | 274° |
| 2026-05-08 00:09 | 39.24990 | 108.79106 | 37330 ft | 408 kts | 274° |
| 2026-05-08 00:10 | 39.25233 | 108.71771 | 37329 ft | 410 kts | 273° |
| 2026-05-08 00:10 | 39.25469 | 108.64427 | 37325 ft | 410 kts | 273° |
| 2026-05-08 00:11 | 39.25703 | 108.57078 | 37325 ft | 410 kts | 273° |
| 2026-05-08 00:11 | 39.25933 | 108.49725 | 37319 ft | 410 kts | 273° |
| 2026-05-08 00:12 | 39.26158 | 108.42377 | 37151 ft | 410 kts | 273° |
| 2026-05-08 00:12 | 39.26379 | 108.35015 | 37155 ft | 412 kts | 273° |
| 2026-05-08 00:13 | 39.26596 | 108.27631 | 37151 ft | 412 kts | 273° |
| 2026-05-08 00:13 | 39.26903 | 108.20243 | 37161 ft | 413 kts | 277° |
| 2026-05-08 00:14 | 39.28285 | 108.13125 | 37154 ft | 413 kts | 290° |
| 2026-05-08 00:14 | 39.31156 | 108.06664 | 37150 ft | 419 kts | 304° |
| 2026-05-08 00:15 | 39.35331 | 108.01310 | 37157 ft | 427 kts | 313° |
| 2026-05-08 00:15 | 39.39898 | 107.96369 | 37154 ft | 428 kts | 315° |
| 2026-05-08 00:16 | 39.44489 | 107.91480 | 37147 ft | 428 kts | 314° |
| 2026-05-08 00:16 | 39.49065 | 107.86556 | 37145 ft | 428 kts | 314° |
| 2026-05-08 00:17 | 39.52860 | 107.82439 | 37145 ft | 428 kts | 314° |
| 2026-05-08 00:17 | 39.57417 | 107.77479 | 37140 ft | 428 kts | 314° |
| 2026-05-08 00:18 | 39.61970 | 107.72513 | 37130 ft | 428 kts | 314° |
| 2026-05-08 00:18 | 39.66544 | 107.67515 | 37135 ft | 431 kts | 314° |
| 2026-05-08 00:19 | 39.71126 | 107.62502 | 37135 ft | 431 kts | 314° |
| 2026-05-08 00:19 | 39.75708 | 107.57482 | 37118 ft | 431 kts | 314° |
| 2026-05-08 00:20 | 39.80282 | 107.52461 | 37119 ft | 430 kts | 314° |
| 2026-05-08 00:20 | 39.84849 | 107.47437 | 37107 ft | 430 kts | 314° |
| 2026-05-08 00:21 | 39.89424 | 107.42397 | 37099 ft | 430 kts | 314° |
| 2026-05-08 00:21 | 39.93989 | 107.37356 | 37092 ft | 431 kts | 314° |
| 2026-05-08 00:22 | 39.98572 | 107.32287 | 37089 ft | 432 kts | 314° |
| 2026-05-08 00:22 | 40.03149 | 107.27217 | 37085 ft | 432 kts | 314° |
| 2026-05-08 00:23 | 40.07728 | 107.22134 | 37084 ft | 432 kts | 314° |
| 2026-05-08 00:23 | 40.12316 | 107.17033 | 37081 ft | 433 kts | 314° |
| 2026-05-08 00:24 | 40.16890 | 107.11938 | 37081 ft | 433 kts | 314° |
| 2026-05-08 00:24 | 40.21473 | 107.06823 | 37080 ft | 433 kts | 314° |
| 2026-05-08 00:25 | 40.26054 | 107.01698 | 37083 ft | 433 kts | 314° |
| 2026-05-08 00:25 | 40.30054 | 106.95997 | 37080 ft | 425 kts | 301° |
| 2026-05-08 00:26 | 40.32752 | 106.89169 | 37090 ft | 423 kts | 289° |
| 2026-05-08 00:26 | 40.34765 | 106.81902 | 37085 ft | 425 kts | 288° |
| 2026-05-08 00:27 | 40.36679 | 106.74559 | 37087 ft | 425 kts | 288° |
| 2026-05-08 00:27 | 40.38595 | 106.67221 | 37088 ft | 426 kts | 288° |
| 2026-05-08 00:28 | 40.40527 | 106.59876 | 37087 ft | 427 kts | 288° |
| 2026-05-08 00:28 | 40.42472 | 106.52499 | 37084 ft | 427 kts | 288° |
| 2026-05-08 00:29 | 40.44410 | 106.45127 | 37084 ft | 427 kts | 288° |
| 2026-05-08 00:29 | 40.46341 | 106.37757 | 37082 ft | 427 kts | 288° |
| 2026-05-08 00:30 | 40.48267 | 106.30381 | 37090 ft | 428 kts | 288° |
| 2026-05-08 00:30 | 40.50195 | 106.22976 | 37092 ft | 428 kts | 288° |
| 2026-05-08 00:31 | 40.52119 | 106.15559 | 37084 ft | 429 kts | 288° |
| 2026-05-08 00:31 | 40.54041 | 106.08142 | 37079 ft | 429 kts | 288° |
| 2026-05-08 00:32 | 40.55954 | 106.00724 | 37081 ft | 429 kts | 288° |
| 2026-05-08 00:32 | 40.57867 | 105.93279 | 37079 ft | 429 kts | 288° |
| 2026-05-08 00:33 | 40.59773 | 105.85843 | 37078 ft | 429 kts | 288° |
| 2026-05-08 00:33 | 40.61674 | 105.78405 | 37072 ft | 429 kts | 288° |
| 2026-05-08 00:34 | 40.63571 | 105.70961 | 37074 ft | 429 kts | 288° |
| 2026-05-08 00:34 | 40.65465 | 105.63504 | 37068 ft | 429 kts | 288° |
| 2026-05-08 00:35 | 40.67351 | 105.56059 | 37070 ft | 428 kts | 288° |
| 2026-05-08 00:35 | 40.69214 | 105.48679 | 37068 ft | 428 kts | 288° |
| 2026-05-08 00:36 | 40.71085 | 105.41244 | 37068 ft | 428 kts | 288° |
| 2026-05-08 00:36 | 40.72952 | 105.33802 | 37072 ft | 428 kts | 288° |
| 2026-05-08 00:37 | 40.74815 | 105.26351 | 37064 ft | 428 kts | 288° |
| 2026-05-08 00:38 | 40.77604 | 105.15158 | 37065 ft | 430 kts | 288° |
| 2026-05-08 00:38 | 40.79474 | 105.07624 | 37064 ft | 433 kts | 288° |
| 2026-05-08 00:39 | 40.81344 | 105.00062 | 37058 ft | 433 kts | 288° |
| 2026-05-08 00:39 | 40.83207 | 104.92507 | 37082 ft | 433 kts | 288° |
| 2026-05-08 00:40 | 40.85051 | 104.85004 | 37051 ft | 426 kts | 288° |
| 2026-05-08 00:40 | 40.86869 | 104.77584 | 37053 ft | 424 kts | 288° |
| 2026-05-08 00:41 | 40.88679 | 104.70172 | 37054 ft | 424 kts | 288° |
| 2026-05-08 00:41 | 40.90484 | 104.62758 | 37051 ft | 424 kts | 288° |
| 2026-05-08 00:42 | 40.92286 | 104.55332 | 37051 ft | 424 kts | 288° |
| 2026-05-08 00:42 | 40.94083 | 104.47903 | 37048 ft | 424 kts | 288° |
| 2026-05-08 00:43 | 40.95860 | 104.40530 | 37033 ft | 424 kts | 288° |
| 2026-05-08 00:43 | 40.97647 | 104.33096 | 37032 ft | 424 kts | 288° |
| 2026-05-08 00:44 | 40.99547 | 104.25706 | 37032 ft | 424 kts | 290° |
| 2026-05-08 00:44 | 41.01707 | 104.18443 | 37026 ft | 425 kts | 291° |
| 2026-05-08 00:45 | 41.03876 | 104.11165 | 37032 ft | 426 kts | 290° |
| 2026-05-08 00:45 | 41.06005 | 104.03839 | 37030 ft | 426 kts | 290° |
| 2026-05-08 00:46 | 41.08107 | 103.96506 | 37033 ft | 426 kts | 290° |
| 2026-05-08 00:46 | 41.10199 | 103.89167 | 37018 ft | 426 kts | 290° |
| 2026-05-08 00:47 | 41.12287 | 103.81829 | 37014 ft | 426 kts | 290° |
| 2026-05-08 00:47 | 41.14381 | 103.74454 | 37013 ft | 427 kts | 290° |
| 2026-05-08 00:48 | 41.16464 | 103.67095 | 37013 ft | 427 kts | 290° |
| 2026-05-08 00:48 | 41.18552 | 103.59699 | 37011 ft | 428 kts | 290° |
| 2026-05-08 00:49 | 41.20646 | 103.52262 | 37009 ft | 431 kts | 290° |
| 2026-05-08 00:49 | 41.22738 | 103.44811 | 37010 ft | 432 kts | 290° |
| 2026-05-08 00:50 | 41.24830 | 103.37338 | 37006 ft | 432 kts | 290° |
| 2026-05-08 00:50 | 41.26923 | 103.29837 | 37002 ft | 432 kts | 289° |
| 2026-05-08 00:51 | 41.29005 | 103.22350 | 37004 ft | 432 kts | 289° |
| 2026-05-08 00:51 | 41.31085 | 103.14855 | 37002 ft | 432 kts | 289° |
| 2026-05-08 00:52 | 41.33158 | 103.07357 | 36999 ft | 433 kts | 289° |
| 2026-05-08 00:52 | 41.35225 | 102.99862 | 36996 ft | 434 kts | 289° |
| 2026-05-08 00:53 | 41.37336 | 102.92361 | 36997 ft | 434 kts | 290° |
| 2026-05-08 00:53 | 41.39522 | 102.84854 | 36993 ft | 434 kts | 290° |
| 2026-05-08 00:54 | 41.41695 | 102.77364 | 36993 ft | 434 kts | 290° |
| 2026-05-08 00:54 | 41.43856 | 102.69847 | 36993 ft | 435 kts | 290° |
| 2026-05-08 00:55 | 41.46027 | 102.62322 | 36990 ft | 435 kts | 290° |
| 2026-05-08 00:55 | 41.48190 | 102.54784 | 36990 ft | 435 kts | 290° |
| 2026-05-08 00:56 | 41.50344 | 102.47252 | 36990 ft | 435 kts | 290° |
| 2026-05-08 00:56 | 41.52499 | 102.39703 | 36983 ft | 435 kts | 289° |
| 2026-05-08 00:57 | 41.54654 | 102.32133 | 36989 ft | 439 kts | 290° |
| 2026-05-08 00:57 | 41.56820 | 102.24501 | 36988 ft | 440 kts | 290° |
| 2026-05-08 00:58 | 41.58986 | 102.16846 | 36987 ft | 440 kts | 290° |
| 2026-05-08 00:58 | 41.61146 | 102.09193 | 36988 ft | 440 kts | 289° |
| 2026-05-08 00:59 | 41.63300 | 102.01536 | 36983 ft | 440 kts | 289° |
| 2026-05-08 00:59 | 41.65452 | 101.93860 | 36988 ft | 441 kts | 289° |
| 2026-05-08 01:00 | 41.67601 | 101.86171 | 36991 ft | 441 kts | 289° |
| 2026-05-08 01:00 | 41.69745 | 101.78478 | 36989 ft | 441 kts | 289° |
| 2026-05-08 01:01 | 41.71886 | 101.70774 | 36991 ft | 441 kts | 289° |
| 2026-05-08 01:01 | 41.74019 | 101.63071 | 36990 ft | 443 kts | 289° |
| 2026-05-08 01:02 | 41.76159 | 101.55321 | 36990 ft | 444 kts | 289° |
| 2026-05-08 01:02 | 41.78282 | 101.47611 | 36990 ft | 444 kts | 289° |
| 2026-05-08 01:03 | 41.80415 | 101.39839 | 36987 ft | 444 kts | 289° |
| 2026-05-08 01:03 | 41.82542 | 101.32067 | 36988 ft | 444 kts | 289° |
| 2026-05-08 01:03 | 41.83603 | 101.28177 | 37184 ft | 444 kts | 289° |
| 2026-05-08 01:04 | 41.84522 | 101.24218 | 37192 ft | 445 kts | 283° |
| 2026-05-08 01:04 | 41.85293 | 101.16006 | 37188 ft | 444 kts | 273° |
| 2026-05-08 01:05 | 41.85544 | 101.07727 | 37188 ft | 445 kts | 272° |
| 2026-05-08 01:05 | 41.85711 | 100.99429 | 37180 ft | 445 kts | 272° |
| 2026-05-08 01:06 | 41.85883 | 100.91128 | 37179 ft | 445 kts | 272° |
| 2026-05-08 01:06 | 41.86065 | 100.82841 | 37162 ft | 445 kts | 272° |
| 2026-05-08 01:07 | 41.86219 | 100.75851 | 37182 ft | 447 kts | 272° |
| 2026-05-08 01:07 | 41.86396 | 100.67542 | 37178 ft | 445 kts | 272° |
| 2026-05-08 01:08 | 41.86565 | 100.59302 | 37178 ft | 445 kts | 272° |
| 2026-05-08 01:08 | 41.86731 | 100.50947 | 37171 ft | 446 kts | 271° |
| 2026-05-08 01:09 | 41.86888 | 100.42670 | 37172 ft | 447 kts | 271° |
| 2026-05-08 01:09 | 41.87041 | 100.34340 | 37170 ft | 447 kts | 271° |
| 2026-05-08 01:10 | 41.87188 | 100.26004 | 37168 ft | 447 kts | 271° |
| 2026-05-08 01:10 | 41.87329 | 100.17674 | 37168 ft | 447 kts | 271° |
| 2026-05-08 01:11 | 41.87464 | 100.09319 | 37160 ft | 448 kts | 271° |
| 2026-05-08 01:11 | 41.87593 | 100.00954 | 37167 ft | 449 kts | 271° |
| 2026-05-08 01:12 | 41.87716 | 99.92583 | 37166 ft | 449 kts | 271° |
| 2026-05-08 01:12 | 41.87833 | 99.84205 | 37164 ft | 449 kts | 271° |
| 2026-05-08 01:13 | 41.87944 | 99.75824 | 37157 ft | 451 kts | 271° |
| 2026-05-08 01:13 | 41.88050 | 99.67405 | 37161 ft | 451 kts | 271° |
| 2026-05-08 01:14 | 41.88149 | 99.58985 | 37160 ft | 451 kts | 271° |
| 2026-05-08 01:14 | 41.88242 | 99.50573 | 37162 ft | 451 kts | 271° |
| 2026-05-08 01:15 | 41.88329 | 99.42139 | 37155 ft | 452 kts | 271° |
| 2026-05-08 01:15 | 41.88411 | 99.33701 | 37157 ft | 452 kts | 271° |
| 2026-05-08 01:16 | 41.88485 | 99.25253 | 37160 ft | 453 kts | 271° |
| 2026-05-08 01:16 | 41.88554 | 99.16810 | 37164 ft | 453 kts | 270° |
| 2026-05-08 01:17 | 41.88617 | 99.08371 | 37148 ft | 453 kts | 270° |
| 2026-05-08 01:17 | 41.88673 | 98.99930 | 37162 ft | 453 kts | 270° |
| 2026-05-08 01:18 | 41.88723 | 98.91456 | 37163 ft | 453 kts | 270° |
| 2026-05-08 01:18 | 41.88768 | 98.82996 | 37161 ft | 453 kts | 270° |
| 2026-05-08 01:19 | 41.88805 | 98.74566 | 37162 ft | 453 kts | 270° |
| 2026-05-08 01:19 | 41.88837 | 98.66099 | 37167 ft | 455 kts | 270° |
| 2026-05-08 01:20 | 41.88863 | 98.57581 | 37156 ft | 456 kts | 270° |
| 2026-05-08 01:20 | 41.88882 | 98.49127 | 37166 ft | 456 kts | 270° |
| 2026-05-08 01:21 | 41.88895 | 98.40601 | 37157 ft | 456 kts | 270° |
| 2026-05-08 01:21 | 41.88902 | 98.32142 | 37177 ft | 451 kts | 270° |
| 2026-05-08 01:22 | 41.88902 | 98.23744 | 37176 ft | 451 kts | 270° |
| 2026-05-08 01:22 | 41.88897 | 98.15329 | 37177 ft | 451 kts | 270° |
| 2026-05-08 01:23 | 41.88885 | 98.06920 | 37179 ft | 451 kts | 270° |
| 2026-05-08 01:23 | 41.88867 | 97.98506 | 37186 ft | 451 kts | 270° |
| 2026-05-08 01:24 | 41.88843 | 97.90075 | 37198 ft | 453 kts | 270° |
| 2026-05-08 01:24 | 41.88813 | 97.81608 | 37183 ft | 454 kts | 270° |
| 2026-05-08 01:25 | 41.88776 | 97.73132 | 37191 ft | 454 kts | 269° |
| 2026-05-08 01:25 | 41.88733 | 97.64664 | 37180 ft | 454 kts | 269° |
| 2026-05-08 01:26 | 41.88683 | 97.56196 | 37198 ft | 455 kts | 270° |
| 2026-05-08 01:26 | 41.88628 | 97.47727 | 37191 ft | 459 kts | 270° |
| 2026-05-08 01:27 | 41.88567 | 97.39161 | 37192 ft | 459 kts | 270° |
| 2026-05-08 01:27 | 41.88498 | 97.30590 | 37188 ft | 459 kts | 270° |
| 2026-05-08 01:28 | 41.88423 | 97.22031 | 37194 ft | 459 kts | 270° |
| 2026-05-08 01:28 | 41.88342 | 97.13465 | 37191 ft | 459 kts | 270° |
| 2026-05-08 01:29 | 41.88254 | 97.04901 | 37196 ft | 459 kts | 270° |
| 2026-05-08 01:29 | 41.88160 | 96.96328 | 37195 ft | 459 kts | 270° |
| 2026-05-08 01:30 | 41.88059 | 96.87765 | 37196 ft | 459 kts | 270° |
| 2026-05-08 01:30 | 41.87952 | 96.79188 | 37198 ft | 460 kts | 270° |
| 2026-05-08 01:31 | 41.87838 | 96.70581 | 37198 ft | 462 kts | 270° |
| 2026-05-08 01:31 | 41.87718 | 96.61961 | 37194 ft | 462 kts | 270° |
| 2026-05-08 01:32 | 41.87591 | 96.53339 | 37192 ft | 462 kts | 270° |
| 2026-05-08 01:32 | 41.87458 | 96.44721 | 37191 ft | 462 kts | 270° |
| 2026-05-08 01:33 | 41.87318 | 96.36072 | 37200 ft | 464 kts | 270° |
| 2026-05-08 01:33 | 41.87171 | 96.27415 | 37200 ft | 464 kts | 270° |
| 2026-05-08 01:34 | 41.87045 | 96.18769 | 37197 ft | 464 kts | 271° |
| 2026-05-08 01:34 | 41.87011 | 96.10105 | 37197 ft | 464 kts | 271° |
| 2026-05-08 01:35 | 41.86981 | 96.01451 | 37197 ft | 465 kts | 271° |
| 2026-05-08 01:35 | 41.86932 | 95.92814 | 37198 ft | 466 kts | 271° |
| 2026-05-08 01:36 | 41.86865 | 95.84063 | 37197 ft | 466 kts | 271° |
| 2026-05-08 01:36 | 41.86792 | 95.75432 | 37192 ft | 466 kts | 271° |
| 2026-05-08 01:37 | 41.86711 | 95.66745 | 37190 ft | 467 kts | 271° |
| 2026-05-08 01:37 | 41.86625 | 95.58025 | 37184 ft | 468 kts | 271° |
| 2026-05-08 01:38 | 41.86533 | 95.49295 | 37185 ft | 468 kts | 271° |
| 2026-05-08 01:38 | 41.86434 | 95.40587 | 37177 ft | 468 kts | 271° |
| 2026-05-08 01:39 | 41.86329 | 95.31853 | 37165 ft | 468 kts | 270° |
| 2026-05-08 01:39 | 41.87038 | 95.23222 | 37182 ft | 467 kts | 286° |
| 2026-05-08 01:40 | 41.89579 | 95.15285 | 37152 ft | 462 kts | 303° |
| 2026-05-08 01:40 | 41.93559 | 95.08532 | 37149 ft | 462 kts | 311° |
| 2026-05-08 01:41 | 41.97824 | 95.02060 | 37138 ft | 462 kts | 312° |
| 2026-05-08 01:41 | 42.02099 | 94.95614 | 37148 ft | 462 kts | 311° |
| 2026-05-08 01:42 | 42.06359 | 94.89118 | 37142 ft | 464 kts | 311° |
| 2026-05-08 01:42 | 42.10608 | 94.82588 | 37120 ft | 464 kts | 311° |
| 2026-05-08 01:43 | 42.14846 | 94.76053 | 37136 ft | 462 kts | 311° |
| 2026-05-08 01:43 | 42.19062 | 94.69539 | 37132 ft | 461 kts | 311° |
| 2026-05-08 01:44 | 42.23282 | 94.63007 | 37114 ft | 461 kts | 311° |
| 2026-05-08 01:44 | 42.27494 | 94.56473 | 37124 ft | 461 kts | 311° |
| 2026-05-08 01:45 | 42.31707 | 94.49923 | 37117 ft | 462 kts | 311° |
| 2026-05-08 01:45 | 42.35899 | 94.43392 | 37122 ft | 459 kts | 311° |
| 2026-05-08 01:46 | 42.40079 | 94.36865 | 37119 ft | 458 kts | 311° |
| 2026-05-08 01:46 | 42.44249 | 94.30339 | 37125 ft | 458 kts | 311° |
| 2026-05-08 01:47 | 42.48418 | 94.23800 | 37107 ft | 458 kts | 311° |
| 2026-05-08 01:47 | 42.52579 | 94.17259 | 37120 ft | 458 kts | 311° |
| 2026-05-08 01:48 | 42.58781 | 94.07482 | 37127 ft | 457 kts | 311° |
| 2026-05-08 01:48 | 42.62954 | 94.00886 | 37118 ft | 457 kts | 311° |
| 2026-05-08 01:49 | 42.67059 | 93.94382 | 37129 ft | 457 kts | 311° |
| 2026-05-08 01:49 | 42.71206 | 93.87797 | 37131 ft | 457 kts | 311° |
| 2026-05-08 01:50 | 42.75334 | 93.81228 | 37018 ft | 457 kts | 311° |
| 2026-05-08 01:50 | 42.79459 | 93.74648 | 37014 ft | 455 kts | 311° |
| 2026-05-08 01:51 | 42.83361 | 93.67901 | 37004 ft | 455 kts | 303° |
| 2026-05-08 01:51 | 42.86048 | 93.60065 | 37024 ft | 457 kts | 292° |
| 2026-05-08 01:52 | 42.88158 | 93.51877 | 37005 ft | 458 kts | 290° |
| 2026-05-08 01:52 | 42.90179 | 93.43626 | 37020 ft | 458 kts | 290° |
| 2026-05-08 01:53 | 42.92201 | 93.35386 | 37019 ft | 458 kts | 290° |
| 2026-05-08 01:53 | 42.94234 | 93.27150 | 36998 ft | 458 kts | 290° |
| 2026-05-08 01:54 | 42.95925 | 93.20298 | 37000 ft | 458 kts | 290° |
| 2026-05-08 01:54 | 42.97956 | 93.12051 | 36991 ft | 458 kts | 290° |
| 2026-05-08 01:55 | 42.99980 | 93.03797 | 37018 ft | 457 kts | 290° |
| 2026-05-08 01:55 | 43.01993 | 92.95556 | 37020 ft | 458 kts | 290° |
| 2026-05-08 01:56 | 43.04002 | 92.87301 | 37017 ft | 457 kts | 290° |
| 2026-05-08 01:56 | 43.06004 | 92.79047 | 36997 ft | 458 kts | 290° |
| 2026-05-08 01:57 | 43.07992 | 92.70817 | 37005 ft | 458 kts | 290° |
| 2026-05-08 01:57 | 43.09980 | 92.62563 | 36999 ft | 458 kts | 290° |
| 2026-05-08 01:58 | 43.11977 | 92.54236 | 36988 ft | 459 kts | 290° |
| 2026-05-08 01:58 | 43.13967 | 92.45910 | 36992 ft | 459 kts | 290° |
| 2026-05-08 01:59 | 43.15943 | 92.37612 | 36987 ft | 459 kts | 290° |
| 2026-05-08 01:59 | 43.17916 | 92.29295 | 37005 ft | 459 kts | 289° |
| 2026-05-08 02:00 | 43.19881 | 92.20980 | 36996 ft | 459 kts | 289° |
| 2026-05-08 02:00 | 43.21843 | 92.12651 | 37002 ft | 459 kts | 289° |
| 2026-05-08 02:01 | 43.23795 | 92.04328 | 37002 ft | 459 kts | 289° |
| 2026-05-08 02:01 | 43.25743 | 91.95994 | 37004 ft | 459 kts | 289° |
| 2026-05-08 02:02 | 43.27688 | 91.87645 | 37002 ft | 459 kts | 289° |
| 2026-05-08 02:02 | 43.29628 | 91.79282 | 36996 ft | 459 kts | 289° |
| 2026-05-08 02:03 | 43.31547 | 91.70977 | 36997 ft | 460 kts | 289° |
| 2026-05-08 02:03 | 43.33485 | 91.62560 | 36994 ft | 459 kts | 289° |
| 2026-05-08 02:04 | 43.35407 | 91.54181 | 37008 ft | 460 kts | 289° |
| 2026-05-08 02:04 | 43.37309 | 91.45854 | 37011 ft | 460 kts | 289° |
| 2026-05-08 02:05 | 43.39219 | 91.37467 | 37019 ft | 460 kts | 289° |
| 2026-05-08 02:05 | 43.41125 | 91.29068 | 37015 ft | 460 kts | 289° |
| 2026-05-08 02:06 | 43.43014 | 91.20684 | 37045 ft | 460 kts | 289° |
| 2026-05-08 02:06 | 43.44898 | 91.12284 | 37019 ft | 461 kts | 289° |
| 2026-05-08 02:07 | 43.46774 | 91.03898 | 37044 ft | 459 kts | 289° |
| 2026-05-08 02:07 | 43.48646 | 90.95488 | 37042 ft | 459 kts | 289° |
| 2026-05-08 02:08 | 43.50514 | 90.87067 | 37052 ft | 459 kts | 289° |
| 2026-05-08 02:08 | 43.52372 | 90.78660 | 37056 ft | 459 kts | 289° |
| 2026-05-08 02:09 | 43.54230 | 90.70222 | 37067 ft | 459 kts | 289° |
| 2026-05-08 02:09 | 43.56073 | 90.61820 | 37070 ft | 459 kts | 289° |
| 2026-05-08 02:10 | 43.57918 | 90.53375 | 37081 ft | 459 kts | 289° |
| 2026-05-08 02:10 | 43.59752 | 90.44942 | 37090 ft | 459 kts | 289° |
| 2026-05-08 02:11 | 43.61580 | 90.36506 | 37080 ft | 459 kts | 288° |
| 2026-05-08 02:11 | 43.63407 | 90.28045 | 37100 ft | 461 kts | 288° |
| 2026-05-08 02:12 | 43.65232 | 90.19552 | 37097 ft | 461 kts | 288° |
| 2026-05-08 02:12 | 43.67049 | 90.11066 | 37098 ft | 461 kts | 288° |
| 2026-05-08 02:13 | 43.68894 | 90.02582 | 37069 ft | 461 kts | 289° |
| 2026-05-08 02:13 | 43.70832 | 89.94142 | 37062 ft | 461 kts | 289° |
| 2026-05-08 02:14 | 43.72777 | 89.85683 | 37064 ft | 462 kts | 289° |
| 2026-05-08 02:14 | 43.74701 | 89.77219 | 37066 ft | 462 kts | 289° |
| 2026-05-08 02:15 | 43.76612 | 89.68736 | 37047 ft | 462 kts | 289° |
| 2026-05-08 02:15 | 43.78513 | 89.60257 | 37047 ft | 462 kts | 289° |
| 2026-05-08 02:16 | 43.80410 | 89.51766 | 37056 ft | 462 kts | 289° |
| 2026-05-08 02:16 | 43.82348 | 89.43292 | 37055 ft | 462 kts | 290° |
| 2026-05-08 02:17 | 43.84305 | 89.34891 | 37040 ft | 461 kts | 290° |
| 2026-05-08 02:17 | 43.86273 | 89.26394 | 37042 ft | 460 kts | 290° |
| 2026-05-08 02:18 | 43.88202 | 89.18000 | 37056 ft | 461 kts | 289° |
| 2026-05-08 02:18 | 43.90140 | 89.09522 | 37060 ft | 461 kts | 289° |
| 2026-05-08 02:19 | 43.92068 | 89.01051 | 37053 ft | 461 kts | 289° |
| 2026-05-08 02:19 | 43.93989 | 88.92577 | 37072 ft | 461 kts | 289° |
| 2026-05-08 02:20 | 43.95909 | 88.84080 | 37078 ft | 461 kts | 289° |
| 2026-05-08 02:20 | 43.97882 | 88.75614 | 37099 ft | 461 kts | 291° |
| 2026-05-08 02:21 | 44.00043 | 88.67236 | 37077 ft | 461 kts | 291° |
| 2026-05-08 02:21 | 44.02213 | 88.58872 | 37097 ft | 461 kts | 291° |
| 2026-05-08 02:22 | 44.04350 | 88.50486 | 37080 ft | 460 kts | 291° |
| 2026-05-08 02:22 | 44.06467 | 88.42080 | 37073 ft | 461 kts | 291° |
| 2026-05-08 02:23 | 44.08574 | 88.33663 | 37071 ft | 461 kts | 291° |
| 2026-05-08 02:23 | 44.10676 | 88.25239 | 37071 ft | 461 kts | 291° |
| 2026-05-08 02:24 | 44.12774 | 88.16805 | 37072 ft | 461 kts | 290° |
| 2026-05-08 02:24 | 44.14868 | 88.08356 | 37032 ft | 461 kts | 290° |
| 2026-05-08 02:25 | 44.17106 | 88.00016 | 37033 ft | 461 kts | 297° |
| 2026-05-08 02:25 | 44.20515 | 87.92457 | 37032 ft | 460 kts | 306° |
| 2026-05-08 02:26 | 44.24320 | 87.85303 | 37015 ft | 459 kts | 308° |
| 2026-05-08 02:26 | 44.28180 | 87.78200 | 37014 ft | 459 kts | 308° |
| 2026-05-08 02:27 | 44.32030 | 87.71079 | 37016 ft | 459 kts | 307° |
| 2026-05-08 02:27 | 44.35883 | 87.63957 | 37016 ft | 460 kts | 308° |
| 2026-05-08 02:28 | 44.39792 | 87.56864 | 37024 ft | 461 kts | 308° |
| 2026-05-08 02:28 | 44.43704 | 87.49764 | 37013 ft | 461 kts | 308° |
| 2026-05-08 02:29 | 44.47582 | 87.42688 | 37013 ft | 461 kts | 308° |
| 2026-05-08 02:29 | 44.51473 | 87.35557 | 37012 ft | 461 kts | 308° |
| 2026-05-08 02:30 | 44.55359 | 87.28419 | 37010 ft | 462 kts | 307° |
| 2026-05-08 02:30 | 44.59367 | 87.21357 | 37013 ft | 462 kts | 309° |
| 2026-05-08 02:31 | 44.63483 | 87.14355 | 37007 ft | 462 kts | 309° |
| 2026-05-08 02:31 | 44.67552 | 87.07388 | 37008 ft | 462 kts | 309° |
| 2026-05-08 02:32 | 44.71578 | 87.00427 | 37008 ft | 462 kts | 309° |
| 2026-05-08 02:32 | 44.75624 | 86.93416 | 36991 ft | 462 kts | 309° |
| 2026-05-08 02:33 | 44.79700 | 86.86344 | 37001 ft | 463 kts | 309° |
| 2026-05-08 02:33 | 44.83727 | 86.79341 | 36998 ft | 462 kts | 309° |
| 2026-05-08 02:34 | 44.87763 | 86.72217 | 36996 ft | 462 kts | 308° |
| 2026-05-08 02:34 | 44.91711 | 86.65135 | 36997 ft | 462 kts | 308° |
| 2026-05-08 02:35 | 44.95711 | 86.57954 | 37001 ft | 462 kts | 308° |
| 2026-05-08 02:35 | 44.99654 | 86.50881 | 36991 ft | 462 kts | 308° |
| 2026-05-08 02:36 | 45.03623 | 86.43750 | 36990 ft | 463 kts | 308° |
| 2026-05-08 02:36 | 45.07607 | 86.36579 | 36987 ft | 463 kts | 308° |
| 2026-05-08 02:37 | 45.11584 | 86.29395 | 36989 ft | 463 kts | 308° |
| 2026-05-08 02:37 | 45.15547 | 86.22217 | 36988 ft | 463 kts | 308° |
| 2026-05-08 02:38 | 45.19508 | 86.15027 | 37081 ft | 463 kts | 308° |
| 2026-05-08 02:38 | 45.23486 | 86.07787 | 36990 ft | 468 kts | 308° |
| 2026-05-08 02:39 | 45.27512 | 86.00444 | 36985 ft | 473 kts | 308° |
| 2026-05-08 02:39 | 45.31540 | 85.93076 | 36986 ft | 472 kts | 307° |
| 2026-05-08 02:40 | 45.34881 | 85.86951 | 36984 ft | 471 kts | 307° |
| 2026-05-08 02:40 | 45.38881 | 85.79599 | 36981 ft | 470 kts | 307° |
| 2026-05-08 02:41 | 45.42874 | 85.72241 | 36984 ft | 470 kts | 307° |
| 2026-05-08 02:41 | 45.46869 | 85.64861 | 36978 ft | 470 kts | 307° |
| 2026-05-08 02:42 | 45.50856 | 85.57475 | 36986 ft | 470 kts | 307° |
| 2026-05-08 02:42 | 45.54828 | 85.50099 | 36977 ft | 469 kts | 307° |
| 2026-05-08 02:43 | 45.58796 | 85.42710 | 36979 ft | 469 kts | 307° |
| 2026-05-08 02:43 | 45.62752 | 85.35325 | 36980 ft | 469 kts | 307° |
| 2026-05-08 02:44 | 45.66709 | 85.27918 | 36977 ft | 469 kts | 307° |
| 2026-05-08 02:44 | 45.70669 | 85.20492 | 36979 ft | 468 kts | 307° |
| 2026-05-08 02:45 | 45.74632 | 85.13097 | 36987 ft | 468 kts | 307° |
| 2026-05-08 02:45 | 45.78583 | 85.05713 | 36990 ft | 468 kts | 307° |
| 2026-05-08 02:46 | 45.82536 | 84.98301 | 36990 ft | 468 kts | 307° |
| 2026-05-08 02:46 | 45.86491 | 84.90865 | 37002 ft | 468 kts | 307° |
| 2026-05-08 02:47 | 45.90426 | 84.83445 | 36988 ft | 468 kts | 307° |
| 2026-05-08 02:47 | 45.94361 | 84.76007 | 37000 ft | 468 kts | 307° |
| 2026-05-08 02:48 | 45.98293 | 84.68553 | 37000 ft | 468 kts | 307° |
| 2026-05-08 02:48 | 46.02193 | 84.61143 | 37002 ft | 468 kts | 307° |
| 2026-05-08 02:49 | 46.06140 | 84.53621 | 37016 ft | 467 kts | 307° |
| 2026-05-08 02:49 | 46.10009 | 84.46229 | 37012 ft | 465 kts | 307° |
| 2026-05-08 02:50 | 46.13897 | 84.38779 | 37027 ft | 465 kts | 307° |
| 2026-05-08 02:50 | 46.17783 | 84.31316 | 37027 ft | 465 kts | 307° |
| 2026-05-08 02:51 | 46.21656 | 84.23858 | 37033 ft | 465 kts | 307° |
| 2026-05-08 02:51 | 46.25526 | 84.16385 | 37036 ft | 464 kts | 307° |
| 2026-05-08 02:52 | 46.29394 | 84.08895 | 37035 ft | 464 kts | 307° |
| 2026-05-08 02:52 | 46.33228 | 84.01394 | 37032 ft | 464 kts | 307° |
| 2026-05-08 02:53 | 46.37056 | 83.93876 | 37026 ft | 464 kts | 307° |
| 2026-05-08 02:53 | 46.40884 | 83.86352 | 37020 ft | 464 kts | 307° |
| 2026-05-08 02:54 | 46.44701 | 83.78837 | 37022 ft | 462 kts | 307° |
| 2026-05-08 02:54 | 46.48501 | 83.71338 | 37022 ft | 462 kts | 307° |
| 2026-05-08 02:55 | 46.54193 | 83.60061 | 37019 ft | 461 kts | 307° |
| 2026-05-08 02:56 | 46.57978 | 83.52539 | 37013 ft | 461 kts | 307° |
| 2026-05-08 02:56 | 46.61754 | 83.45014 | 37021 ft | 458 kts | 308° |
| 2026-05-08 02:57 | 46.65499 | 83.37530 | 37015 ft | 457 kts | 308° |
| 2026-05-08 02:57 | 46.69073 | 83.29890 | 37022 ft | 457 kts | 304° |
| 2026-05-08 02:58 | 46.72394 | 83.21974 | 37016 ft | 458 kts | 303° |
| 2026-05-08 02:58 | 46.75696 | 83.14107 | 37023 ft | 458 kts | 304° |
| 2026-05-08 02:59 | 46.79056 | 83.06229 | 37015 ft | 457 kts | 304° |
| 2026-05-08 02:59 | 46.82421 | 82.98385 | 37019 ft | 456 kts | 304° |
| 2026-05-08 03:00 | 46.85556 | 82.90324 | 37034 ft | 458 kts | 295° |
| 2026-05-08 03:00 | 46.87288 | 82.81338 | 37025 ft | 463 kts | 283° |
| 2026-05-08 03:01 | 46.88313 | 82.72014 | 37023 ft | 465 kts | 282° |
| 2026-05-08 03:01 | 46.89227 | 82.62642 | 37016 ft | 465 kts | 281° |
| 2026-05-08 03:02 | 46.90144 | 82.53274 | 37029 ft | 466 kts | 282° |
| 2026-05-08 03:02 | 46.91074 | 82.43919 | 36993 ft | 467 kts | 278° |
| 2026-05-08 03:03 | 46.92010 | 82.34481 | 37021 ft | 468 kts | 281° |
| 2026-05-08 03:03 | 46.92935 | 82.25084 | 37017 ft | 466 kts | 281° |
| 2026-05-08 03:04 | 46.93850 | 82.15711 | 37018 ft | 465 kts | 281° |
| 2026-05-08 03:04 | 46.94754 | 82.06358 | 37015 ft | 464 kts | 281° |
| 2026-05-08 03:05 | 46.95650 | 81.97004 | 37017 ft | 464 kts | 281° |
| 2026-05-08 03:05 | 46.96542 | 81.87656 | 37009 ft | 464 kts | 281° |
| 2026-05-08 03:06 | 46.97415 | 81.78297 | 37063 ft | 464 kts | 281° |
| 2026-05-08 03:06 | 46.98276 | 81.68938 | 37062 ft | 463 kts | 281° |
| 2026-05-08 03:07 | 46.99129 | 81.59601 | 37069 ft | 462 kts | 281° |
| 2026-05-08 03:07 | 46.99975 | 81.50278 | 37065 ft | 462 kts | 281° |
| 2026-05-08 03:08 | 47.00816 | 81.40939 | 37060 ft | 462 kts | 280° |
| 2026-05-08 03:08 | 47.01647 | 81.31613 | 37065 ft | 462 kts | 280° |
| 2026-05-08 03:09 | 47.02472 | 81.22271 | 37061 ft | 462 kts | 280° |
| 2026-05-08 03:09 | 47.03288 | 81.12938 | 37062 ft | 462 kts | 280° |
| 2026-05-08 03:10 | 47.04092 | 81.03657 | 37066 ft | 461 kts | 280° |
| 2026-05-08 03:10 | 47.04896 | 80.94352 | 37064 ft | 459 kts | 280° |
| 2026-05-08 03:11 | 47.05684 | 80.85058 | 37057 ft | 458 kts | 279° |
| 2026-05-08 03:11 | 47.06460 | 80.75803 | 37056 ft | 458 kts | 279° |
| 2026-05-08 03:12 | 47.07233 | 80.66514 | 37050 ft | 458 kts | 279° |
| 2026-05-08 03:12 | 47.08000 | 80.57227 | 37052 ft | 458 kts | 279° |
| 2026-05-08 03:13 | 47.08757 | 80.47951 | 37056 ft | 458 kts | 279° |
| 2026-05-08 03:13 | 47.09509 | 80.38658 | 37055 ft | 458 kts | 279° |
| 2026-05-08 03:14 | 47.10250 | 80.29387 | 37057 ft | 458 kts | 279° |
| 2026-05-08 03:14 | 47.10987 | 80.20081 | 37058 ft | 458 kts | 279° |
| 2026-05-08 03:15 | 47.11716 | 80.10783 | 37058 ft | 458 kts | 279° |
| 2026-05-08 03:15 | 47.12437 | 80.01480 | 37062 ft | 459 kts | 279° |
| 2026-05-08 03:16 | 47.13150 | 79.92184 | 37057 ft | 459 kts | 278° |
| 2026-05-08 03:16 | 47.13862 | 79.82860 | 37056 ft | 459 kts | 279° |
| 2026-05-08 03:17 | 47.14582 | 79.73559 | 37061 ft | 457 kts | 278° |
| 2026-05-08 03:17 | 47.15295 | 79.64288 | 37054 ft | 457 kts | 278° |
| 2026-05-08 03:18 | 47.16000 | 79.55001 | 37058 ft | 458 kts | 278° |
| 2026-05-08 03:18 | 47.16697 | 79.45706 | 37058 ft | 458 kts | 278° |
| 2026-05-08 03:19 | 47.17386 | 79.36406 | 37062 ft | 457 kts | 278° |
| 2026-05-08 03:19 | 47.18066 | 79.27121 | 37062 ft | 458 kts | 278° |
| 2026-05-08 03:20 | 47.18741 | 79.17812 | 37057 ft | 458 kts | 278° |
| 2026-05-08 03:20 | 47.19403 | 79.08516 | 37061 ft | 457 kts | 277° |
| 2026-05-08 03:21 | 47.20040 | 78.99200 | 37069 ft | 457 kts | 277° |
| 2026-05-08 03:21 | 47.20663 | 78.89958 | 37068 ft | 457 kts | 277° |
| 2026-05-08 03:22 | 47.21285 | 78.80654 | 37063 ft | 457 kts | 277° |
| 2026-05-08 03:22 | 47.21902 | 78.71342 | 37065 ft | 457 kts | 277° |
| 2026-05-08 03:23 | 47.22511 | 78.62040 | 37060 ft | 457 kts | 277° |
| 2026-05-08 03:23 | 47.23112 | 78.52733 | 37072 ft | 457 kts | 276° |
| 2026-05-08 03:24 | 47.23704 | 78.43456 | 37065 ft | 455 kts | 276° |
| 2026-05-08 03:24 | 47.24287 | 78.34190 | 37050 ft | 455 kts | 276° |
| 2026-05-08 03:25 | 47.24863 | 78.24924 | 37062 ft | 455 kts | 276° |
| 2026-05-08 03:25 | 47.25431 | 78.15649 | 37055 ft | 455 kts | 276° |
| 2026-05-08 03:26 | 47.25991 | 78.06388 | 37055 ft | 455 kts | 276° |
| 2026-05-08 03:26 | 47.26544 | 77.97121 | 37051 ft | 455 kts | 276° |
| 2026-05-08 03:27 | 47.27091 | 77.87845 | 37048 ft | 455 kts | 276° |
| 2026-05-08 03:27 | 47.27629 | 77.78565 | 37056 ft | 455 kts | 276° |
| 2026-05-08 03:28 | 47.28160 | 77.69291 | 37054 ft | 455 kts | 275° |
| 2026-05-08 03:28 | 47.28596 | 77.61570 | 37049 ft | 455 kts | 275° |
| 2026-05-08 03:29 | 47.29113 | 77.52286 | 37052 ft | 455 kts | 275° |
| 2026-05-08 03:29 | 47.29623 | 77.43016 | 37048 ft | 451 kts | 275° |
| 2026-05-08 03:30 | 47.30360 | 77.29303 | 37054 ft | 446 kts | 275° |
| 2026-05-08 03:31 | 47.31314 | 77.11119 | 37050 ft | 445 kts | 274° |
| 2026-05-08 03:32 | 47.32238 | 76.97523 | 37055 ft | 445 kts | 278° |
| 2026-05-08 03:32 | 47.33251 | 76.88509 | 37047 ft | 445 kts | 279° |
| 2026-05-08 03:33 | 47.34244 | 76.79502 | 37046 ft | 445 kts | 278° |
| 2026-05-08 03:33 | 47.35171 | 76.70484 | 37051 ft | 445 kts | 278° |
| 2026-05-08 03:34 | 47.36067 | 76.61452 | 37049 ft | 445 kts | 278° |
| 2026-05-08 03:34 | 47.36954 | 76.52400 | 37045 ft | 447 kts | 278° |
| 2026-05-08 03:35 | 47.37832 | 76.43389 | 37043 ft | 447 kts | 277° |
| 2026-05-08 03:35 | 47.38709 | 76.34330 | 37046 ft | 448 kts | 277° |
| 2026-05-08 03:36 | 47.39582 | 76.25230 | 37061 ft | 448 kts | 277° |
| 2026-05-08 03:36 | 47.40447 | 76.16145 | 37051 ft | 447 kts | 277° |
| 2026-05-08 03:37 | 47.41306 | 76.07048 | 37054 ft | 449 kts | 277° |
| 2026-05-08 03:37 | 47.42160 | 75.97918 | 37054 ft | 449 kts | 277° |
| 2026-05-08 03:38 | 47.43007 | 75.88775 | 37054 ft | 449 kts | 277° |
| 2026-05-08 03:38 | 47.43847 | 75.79632 | 37052 ft | 449 kts | 277° |
| 2026-05-08 03:39 | 47.44679 | 75.70498 | 37052 ft | 449 kts | 277° |
| 2026-05-08 03:39 | 47.45507 | 75.61321 | 37054 ft | 452 kts | 277° |
| 2026-05-08 03:40 | 47.46331 | 75.52108 | 37055 ft | 452 kts | 277° |
| 2026-05-08 03:40 | 47.47148 | 75.42888 | 37056 ft | 452 kts | 277° |
| 2026-05-08 03:41 | 47.47957 | 75.33669 | 37061 ft | 452 kts | 276° |
| 2026-05-08 03:41 | 47.48759 | 75.24434 | 37059 ft | 452 kts | 276° |
| 2026-05-08 03:42 | 47.49555 | 75.15194 | 37054 ft | 454 kts | 276° |
| 2026-05-08 03:42 | 47.50345 | 75.05934 | 37055 ft | 454 kts | 276° |
| 2026-05-08 03:43 | 47.51127 | 74.96669 | 37056 ft | 454 kts | 276° |
| 2026-05-08 03:43 | 47.51903 | 74.87390 | 37058 ft | 454 kts | 276° |
| 2026-05-08 03:44 | 47.52670 | 74.78112 | 37059 ft | 454 kts | 276° |
| 2026-05-08 03:44 | 47.53430 | 74.68840 | 37053 ft | 454 kts | 276° |
| 2026-05-08 03:45 | 47.54182 | 74.59578 | 37056 ft | 454 kts | 276° |
| 2026-05-08 03:45 | 47.54925 | 74.50317 | 37055 ft | 454 kts | 276° |
| 2026-05-08 03:46 | 47.55664 | 74.41020 | 37054 ft | 454 kts | 276° |
| 2026-05-08 03:46 | 47.56393 | 74.31742 | 37050 ft | 453 kts | 276° |
| 2026-05-08 03:47 | 47.57114 | 74.22480 | 37062 ft | 452 kts | 276° |
| 2026-05-08 03:47 | 47.57825 | 74.13246 | 37058 ft | 450 kts | 276° |
| 2026-05-08 03:48 | 47.58527 | 74.04026 | 37061 ft | 450 kts | 275° |
| 2026-05-08 03:48 | 47.59216 | 73.94880 | 37062 ft | 450 kts | 275° |
| 2026-05-08 03:49 | 47.59903 | 73.85652 | 37057 ft | 450 kts | 275° |
| 2026-05-08 03:49 | 47.60586 | 73.76381 | 37055 ft | 449 kts | 275° |
| 2026-05-08 03:50 | 47.61252 | 73.67243 | 37055 ft | 449 kts | 275° |
| 2026-05-08 03:50 | 47.61914 | 73.58049 | 37055 ft | 449 kts | 275° |
| 2026-05-08 03:51 | 47.62571 | 73.48830 | 37050 ft | 449 kts | 275° |
| 2026-05-08 03:51 | 47.63220 | 73.39621 | 37050 ft | 449 kts | 275° |
| 2026-05-08 03:52 | 47.63861 | 73.30410 | 37048 ft | 449 kts | 275° |
| 2026-05-08 03:52 | 47.64493 | 73.21222 | 37055 ft | 447 kts | 275° |
| 2026-05-08 03:53 | 47.65116 | 73.12056 | 37044 ft | 446 kts | 275° |
| 2026-05-08 03:53 | 47.65730 | 73.02909 | 37041 ft | 446 kts | 275° |
| 2026-05-08 03:54 | 47.66337 | 72.93753 | 36994 ft | 446 kts | 274° |
| 2026-05-08 03:54 | 47.66937 | 72.84608 | 36998 ft | 445 kts | 274° |
| 2026-05-08 03:55 | 47.67527 | 72.75483 | 36999 ft | 445 kts | 274° |
| 2026-05-08 03:55 | 47.68110 | 72.66367 | 36999 ft | 445 kts | 274° |
| 2026-05-08 03:56 | 47.68685 | 72.57255 | 36998 ft | 445 kts | 274° |
| 2026-05-08 03:56 | 47.69253 | 72.48127 | 37003 ft | 445 kts | 274° |
| 2026-05-08 03:57 | 47.69814 | 72.39009 | 37000 ft | 445 kts | 274° |
| 2026-05-08 03:57 | 47.70371 | 72.29843 | 37004 ft | 444 kts | 274° |
| 2026-05-08 03:58 | 47.70919 | 72.20691 | 37012 ft | 444 kts | 274° |
| 2026-05-08 03:58 | 47.71458 | 72.11558 | 37016 ft | 444 kts | 273° |
| 2026-05-08 03:59 | 47.71991 | 72.02416 | 37017 ft | 445 kts | 273° |
| 2026-05-08 03:59 | 47.72519 | 71.93235 | 37015 ft | 446 kts | 273° |
| 2026-05-08 04:00 | 47.73039 | 71.84051 | 37018 ft | 447 kts | 273° |
| 2026-05-08 04:00 | 47.73504 | 71.74849 | 37020 ft | 446 kts | 272° |
| 2026-05-08 04:01 | 47.73865 | 71.65657 | 37023 ft | 446 kts | 271° |
| 2026-05-08 04:01 | 47.74219 | 71.56454 | 37019 ft | 447 kts | 272° |
| 2026-05-08 04:02 | 47.74583 | 71.47229 | 37018 ft | 448 kts | 272° |
| 2026-05-08 04:02 | 47.74948 | 71.37999 | 37014 ft | 448 kts | 271° |
| 2026-05-08 04:03 | 47.75306 | 71.28763 | 37011 ft | 448 kts | 271° |
| 2026-05-08 04:03 | 47.75826 | 71.14981 | 37012 ft | 448 kts | 271° |
| 2026-05-08 04:04 | 47.76165 | 71.05758 | 37006 ft | 445 kts | 271° |
| 2026-05-08 04:04 | 47.76493 | 70.96591 | 37001 ft | 444 kts | 271° |
| 2026-05-08 04:05 | 47.76814 | 70.87409 | 37000 ft | 444 kts | 271° |
| 2026-05-08 04:05 | 47.77128 | 70.78243 | 36999 ft | 444 kts | 271° |
| 2026-05-08 04:06 | 47.77435 | 70.69067 | 37005 ft | 444 kts | 271° |
| 2026-05-08 04:06 | 47.77738 | 70.59896 | 36994 ft | 444 kts | 271° |
| 2026-05-08 04:07 | 47.78028 | 70.50762 | 36994 ft | 444 kts | 270° |
| 2026-05-08 04:07 | 47.78306 | 70.41642 | 36995 ft | 444 kts | 270° |
| 2026-05-08 04:08 | 47.78581 | 70.32421 | 36996 ft | 444 kts | 270° |
| 2026-05-08 04:08 | 47.78846 | 70.23357 | 37001 ft | 444 kts | 270° |
| 2026-05-08 04:09 | 47.79109 | 70.14105 | 37005 ft | 442 kts | 270° |
| 2026-05-08 04:09 | 47.79363 | 70.04970 | 36999 ft | 441 kts | 269° |
| 2026-05-08 04:10 | 47.79607 | 69.95860 | 36993 ft | 441 kts | 269° |
| 2026-05-08 04:10 | 47.79844 | 69.86794 | 36999 ft | 441 kts | 269° |
| 2026-05-08 04:11 | 47.80076 | 69.77613 | 36994 ft | 441 kts | 269° |
| 2026-05-08 04:11 | 47.80299 | 69.68566 | 36992 ft | 440 kts | 269° |
| 2026-05-08 04:12 | 47.80513 | 69.59478 | 36980 ft | 440 kts | 269° |
| 2026-05-08 04:12 | 47.80723 | 69.50353 | 36982 ft | 443 kts | 269° |
| 2026-05-08 04:13 | 47.80924 | 69.41217 | 36990 ft | 440 kts | 268° |
| 2026-05-08 04:13 | 47.81118 | 69.32123 | 36977 ft | 440 kts | 268° |
| 2026-05-08 04:14 | 47.81304 | 69.23044 | 36975 ft | 439 kts | 268° |
| 2026-05-08 04:14 | 47.81482 | 69.13983 | 36970 ft | 438 kts | 268° |
| 2026-05-08 04:15 | 47.81653 | 69.04920 | 36973 ft | 438 kts | 268° |
| 2026-05-08 04:15 | 47.81818 | 68.95849 | 36969 ft | 439 kts | 268° |
| 2026-05-08 04:16 | 47.81975 | 68.86795 | 36976 ft | 439 kts | 268° |
| 2026-05-08 04:16 | 47.81689 | 68.77752 | 36960 ft | 434 kts | 261° |
| 2026-05-08 04:17 | 47.80944 | 68.68847 | 36956 ft | 434 kts | 259° |
| 2026-05-08 04:17 | 47.80266 | 68.61468 | 36959 ft | 433 kts | 259° |
| 2026-05-08 04:18 | 47.79438 | 68.52590 | 36960 ft | 433 kts | 259° |
| 2026-05-08 04:18 | 47.78612 | 68.43711 | 36962 ft | 433 kts | 259° |
| 2026-05-08 04:19 | 47.77786 | 68.34839 | 36957 ft | 434 kts | 259° |
| 2026-05-08 04:19 | 47.76949 | 68.25929 | 36961 ft | 434 kts | 259° |
| 2026-05-08 04:20 | 47.76108 | 68.17045 | 36980 ft | 434 kts | 258° |
| 2026-05-08 04:20 | 47.75259 | 68.08152 | 36999 ft | 434 kts | 258° |
| 2026-05-08 04:21 | 47.74403 | 67.99275 | 37014 ft | 434 kts | 258° |
| 2026-05-08 04:21 | 47.73542 | 67.90404 | 37039 ft | 434 kts | 258° |
| 2026-05-08 04:22 | 47.72673 | 67.81531 | 37049 ft | 434 kts | 258° |
| 2026-05-08 04:22 | 47.71771 | 67.72672 | 37046 ft | 433 kts | 256° |
| 2026-05-08 04:23 | 47.70489 | 67.63940 | 37052 ft | 432 kts | 254° |
| 2026-05-08 04:23 | 47.69090 | 67.55267 | 37034 ft | 433 kts | 254° |
| 2026-05-08 04:24 | 47.67734 | 67.46571 | 36949 ft | 433 kts | 254° |
| 2026-05-08 04:24 | 47.66408 | 67.37833 | 36949 ft | 433 kts | 254° |
| 2026-05-08 04:25 | 47.65090 | 67.29115 | 36951 ft | 433 kts | 254° |
| 2026-05-08 04:25 | 47.63766 | 67.20407 | 36952 ft | 433 kts | 254° |
| 2026-05-08 04:26 | 47.62429 | 67.11689 | 36952 ft | 434 kts | 254° |
| 2026-05-08 04:26 | 47.61083 | 67.02955 | 36955 ft | 435 kts | 254° |
| 2026-05-08 04:27 | 47.59730 | 66.94224 | 36953 ft | 435 kts | 254° |
| 2026-05-08 04:27 | 47.58379 | 66.85555 | 36957 ft | 435 kts | 254° |
| 2026-05-08 04:28 | 47.57014 | 66.76840 | 36976 ft | 435 kts | 254° |
| 2026-05-08 04:28 | 47.55635 | 66.68097 | 36958 ft | 436 kts | 254° |
| 2026-05-08 04:29 | 47.54203 | 66.59376 | 36959 ft | 436 kts | 253° |
| 2026-05-08 04:29 | 47.52749 | 66.50655 | 36957 ft | 436 kts | 253° |
| 2026-05-08 04:30 | 47.51297 | 66.41940 | 36961 ft | 436 kts | 253° |
| 2026-05-08 04:30 | 47.49842 | 66.33224 | 36957 ft | 437 kts | 253° |
| 2026-05-08 04:31 | 47.48377 | 66.24481 | 36961 ft | 438 kts | 253° |
| 2026-05-08 04:31 | 47.46907 | 66.15749 | 36962 ft | 438 kts | 253° |
| 2026-05-08 04:32 | 47.45431 | 66.07029 | 36966 ft | 438 kts | 253° |
| 2026-05-08 04:32 | 47.43945 | 65.98300 | 36963 ft | 438 kts | 253° |
| 2026-05-08 04:33 | 47.42460 | 65.89618 | 36963 ft | 440 kts | 253° |
| 2026-05-08 04:33 | 47.40960 | 65.80853 | 36963 ft | 440 kts | 253° |
| 2026-05-08 04:34 | 47.39512 | 65.72077 | 36964 ft | 440 kts | 253° |
| 2026-05-08 04:34 | 47.38073 | 65.63296 | 36969 ft | 440 kts | 253° |
| 2026-05-08 04:35 | 47.36618 | 65.54517 | 36969 ft | 441 kts | 253° |
| 2026-05-08 04:35 | 47.35150 | 65.45742 | 36966 ft | 441 kts | 253° |
| 2026-05-08 04:36 | 47.33671 | 65.36952 | 36966 ft | 441 kts | 253° |
| 2026-05-08 04:36 | 47.32186 | 65.28173 | 36968 ft | 441 kts | 253° |
| 2026-05-08 04:37 | 47.30698 | 65.19420 | 36978 ft | 441 kts | 253° |
| 2026-05-08 04:37 | 47.29202 | 65.10662 | 36970 ft | 440 kts | 253° |
| 2026-05-08 04:38 | 47.27704 | 65.01937 | 36974 ft | 440 kts | 253° |
| 2026-05-08 04:38 | 47.26200 | 64.93208 | 36975 ft | 440 kts | 253° |
| 2026-05-08 04:39 | 47.24685 | 64.84491 | 36976 ft | 440 kts | 253° |
| 2026-05-08 04:39 | 47.23162 | 64.75781 | 36976 ft | 439 kts | 253° |
| 2026-05-08 04:40 | 47.21637 | 64.67087 | 36976 ft | 439 kts | 253° |
| 2026-05-08 04:40 | 47.20104 | 64.58392 | 36983 ft | 439 kts | 253° |
| 2026-05-08 04:41 | 47.18582 | 64.49768 | 36983 ft | 439 kts | 253° |
| 2026-05-08 04:41 | 47.17035 | 64.41030 | 36937 ft | 439 kts | 253° |
| 2026-05-08 04:42 | 47.15478 | 64.32296 | 36985 ft | 446 kts | 253° |
| 2026-05-08 04:42 | 47.13902 | 64.23493 | 36983 ft | 449 kts | 253° |
| 2026-05-08 04:43 | 47.12312 | 64.14639 | 36982 ft | 448 kts | 253° |
| 2026-05-08 04:43 | 47.10715 | 64.05793 | 36987 ft | 448 kts | 253° |
| 2026-05-08 04:44 | 47.09109 | 63.96944 | 36988 ft | 448 kts | 253° |
| 2026-05-08 04:44 | 47.07499 | 63.88116 | 36994 ft | 448 kts | 253° |
| 2026-05-08 04:45 | 47.05882 | 63.79290 | 36993 ft | 448 kts | 253° |
| 2026-05-08 04:45 | 47.04256 | 63.70460 | 36992 ft | 448 kts | 253° |
| 2026-05-08 04:46 | 47.02623 | 63.61636 | 36993 ft | 448 kts | 253° |
| 2026-05-08 04:46 | 47.00984 | 63.52817 | 36994 ft | 448 kts | 253° |
| 2026-05-08 04:47 | 46.99338 | 63.44007 | 36993 ft | 449 kts | 253° |
| 2026-05-08 04:47 | 46.97687 | 63.35206 | 36995 ft | 449 kts | 253° |
| 2026-05-08 04:48 | 46.96026 | 63.26398 | 37006 ft | 449 kts | 252° |
| 2026-05-08 04:48 | 46.94362 | 63.17611 | 36999 ft | 448 kts | 252° |
| 2026-05-08 04:49 | 46.92687 | 63.08811 | 36999 ft | 448 kts | 252° |
| 2026-05-08 04:49 | 46.91007 | 63.00023 | 36999 ft | 448 kts | 252° |
| 2026-05-08 04:50 | 46.89324 | 62.91260 | 37001 ft | 448 kts | 252° |
| 2026-05-08 04:50 | 46.87627 | 62.82463 | 36998 ft | 449 kts | 252° |
| 2026-05-08 04:51 | 46.85928 | 62.73702 | 36998 ft | 448 kts | 252° |
| 2026-05-08 04:51 | 46.84222 | 62.64937 | 36997 ft | 448 kts | 252° |
| 2026-05-08 04:52 | 46.82509 | 62.56181 | 36998 ft | 448 kts | 252° |
| 2026-05-08 04:52 | 46.80795 | 62.47434 | 37002 ft | 448 kts | 252° |
| 2026-05-08 04:53 | 46.79072 | 62.38710 | 36998 ft | 447 kts | 252° |
| 2026-05-08 04:53 | 46.77355 | 62.30058 | 37000 ft | 447 kts | 252° |
| 2026-05-08 04:54 | 46.75623 | 62.21359 | 37001 ft | 447 kts | 252° |
| 2026-05-08 04:54 | 46.73884 | 62.12662 | 36999 ft | 447 kts | 252° |
| 2026-05-08 04:55 | 46.72144 | 62.03994 | 36996 ft | 446 kts | 251° |
| 2026-05-08 04:55 | 46.70392 | 61.95312 | 36998 ft | 446 kts | 251° |
| 2026-05-08 04:56 | 46.68636 | 61.86644 | 36996 ft | 446 kts | 251° |
| 2026-05-08 04:56 | 46.66874 | 61.77983 | 36994 ft | 446 kts | 251° |
| 2026-05-08 04:57 | 46.65108 | 61.69342 | 36996 ft | 445 kts | 251° |
| 2026-05-08 04:57 | 46.63338 | 61.60719 | 36996 ft | 444 kts | 251° |
| 2026-05-08 04:58 | 46.61562 | 61.52104 | 36999 ft | 444 kts | 251° |
| 2026-05-08 04:58 | 46.59781 | 61.43503 | 36999 ft | 444 kts | 251° |
| 2026-05-08 04:59 | 46.57996 | 61.34912 | 37004 ft | 444 kts | 251° |
| 2026-05-08 04:59 | 46.56204 | 61.26333 | 37004 ft | 443 kts | 250° |
| 2026-05-08 05:00 | 46.54410 | 61.17780 | 37003 ft | 443 kts | 250° |
| 2026-05-08 05:00 | 46.52610 | 61.09229 | 37004 ft | 443 kts | 250° |
| 2026-05-08 05:01 | 46.50803 | 61.00683 | 37004 ft | 443 kts | 250° |
| 2026-05-08 05:01 | 46.48988 | 60.92138 | 36993 ft | 443 kts | 250° |
| 2026-05-08 05:02 | 46.47169 | 60.83605 | 36994 ft | 442 kts | 250° |
| 2026-05-08 05:02 | 46.45345 | 60.75087 | 37000 ft | 442 kts | 250° |
| 2026-05-08 05:03 | 46.43515 | 60.66579 | 36984 ft | 442 kts | 250° |
| 2026-05-08 05:03 | 46.41678 | 60.58065 | 36904 ft | 442 kts | 250° |
| 2026-05-08 05:04 | 46.39834 | 60.49561 | 36903 ft | 443 kts | 250° |
| 2026-05-08 05:04 | 46.37982 | 60.41053 | 36903 ft | 443 kts | 250° |
| 2026-05-08 05:05 | 46.36441 | 60.33998 | 36906 ft | 442 kts | 250° |
| 2026-05-08 05:05 | 46.34578 | 60.25504 | 36906 ft | 442 kts | 250° |
| 2026-05-08 05:06 | 46.32711 | 60.17024 | 36905 ft | 442 kts | 249° |
| 2026-05-08 05:06 | 46.30838 | 60.08550 | 36906 ft | 442 kts | 249° |
| 2026-05-08 05:07 | 46.28956 | 60.00075 | 36914 ft | 442 kts | 249° |
| 2026-05-08 05:07 | 46.27070 | 59.91610 | 36909 ft | 442 kts | 249° |
| 2026-05-08 05:08 | 46.25178 | 59.83153 | 36909 ft | 443 kts | 249° |
| 2026-05-08 05:08 | 46.23272 | 59.74670 | 36908 ft | 444 kts | 249° |
| 2026-05-08 05:09 | 46.21363 | 59.66201 | 36911 ft | 444 kts | 249° |
| 2026-05-08 05:09 | 46.19428 | 59.57727 | 36926 ft | 447 kts | 249° |
| 2026-05-08 05:10 | 46.16502 | 59.44973 | 36915 ft | 445 kts | 249° |
| 2026-05-08 05:11 | 46.14565 | 59.36563 | 36916 ft | 445 kts | 249° |
| 2026-05-08 05:11 | 46.12613 | 59.28115 | 36918 ft | 445 kts | 249° |
| 2026-05-08 05:12 | 46.10644 | 59.19627 | 36920 ft | 446 kts | 249° |
| 2026-05-08 05:12 | 46.08674 | 59.11165 | 36924 ft | 446 kts | 248° |
| 2026-05-08 05:13 | 46.06697 | 59.02707 | 36919 ft | 446 kts | 248° |
| 2026-05-08 05:13 | 46.04721 | 58.94290 | 36920 ft | 446 kts | 248° |
| 2026-05-08 05:14 | 46.02731 | 58.85841 | 36925 ft | 445 kts | 248° |
| 2026-05-08 05:14 | 46.00740 | 58.77420 | 36929 ft | 445 kts | 248° |
| 2026-05-08 05:15 | 45.98731 | 58.68957 | 36928 ft | 445 kts | 248° |
| 2026-05-08 05:15 | 45.96734 | 58.60576 | 36929 ft | 444 kts | 248° |
| 2026-05-08 05:16 | 45.94718 | 58.52150 | 36927 ft | 444 kts | 248° |
| 2026-05-08 05:16 | 45.92704 | 58.43764 | 36961 ft | 444 kts | 248° |
| 2026-05-08 05:17 | 45.90683 | 58.35377 | 36933 ft | 444 kts | 248° |
| 2026-05-08 05:17 | 45.88659 | 58.27009 | 36939 ft | 444 kts | 248° |
| 2026-05-08 05:18 | 45.86628 | 58.18648 | 36939 ft | 444 kts | 248° |
| 2026-05-08 05:18 | 45.84593 | 58.10297 | 36941 ft | 444 kts | 248° |
| 2026-05-08 05:19 | 45.82552 | 58.01955 | 36942 ft | 443 kts | 248° |
| 2026-05-08 05:19 | 45.80508 | 57.93630 | 36947 ft | 443 kts | 248° |
| 2026-05-08 05:20 | 45.78457 | 57.85310 | 36946 ft | 443 kts | 248° |
| 2026-05-08 05:20 | 45.76401 | 57.76999 | 36947 ft | 443 kts | 248° |
| 2026-05-08 05:21 | 45.74340 | 57.68696 | 36953 ft | 443 kts | 248° |
| 2026-05-08 05:21 | 45.72289 | 57.60445 | 36953 ft | 443 kts | 248° |
| 2026-05-08 05:22 | 45.70212 | 57.52149 | 36955 ft | 443 kts | 248° |
| 2026-05-08 05:22 | 45.68118 | 57.43817 | 36960 ft | 443 kts | 248° |
| 2026-05-08 05:23 | 45.66044 | 57.35588 | 36967 ft | 443 kts | 248° |
| 2026-05-08 05:23 | 45.63952 | 57.27321 | 36976 ft | 442 kts | 248° |
| 2026-05-08 05:24 | 45.61855 | 57.19060 | 36965 ft | 446 kts | 247° |
| 2026-05-08 05:24 | 45.59733 | 57.10719 | 36965 ft | 443 kts | 247° |
| 2026-05-08 05:25 | 45.57622 | 57.02458 | 36982 ft | 443 kts | 247° |
| 2026-05-08 05:25 | 45.55505 | 56.94207 | 36971 ft | 443 kts | 247° |
| 2026-05-08 05:26 | 45.53382 | 56.85961 | 36972 ft | 443 kts | 247° |
| 2026-05-08 05:26 | 45.51256 | 56.77729 | 36971 ft | 443 kts | 247° |
| 2026-05-08 05:27 | 45.49119 | 56.69485 | 36974 ft | 443 kts | 247° |
| 2026-05-08 05:27 | 45.46978 | 56.61256 | 36974 ft | 443 kts | 247° |
| 2026-05-08 05:28 | 45.44833 | 56.53042 | 36971 ft | 443 kts | 247° |
| 2026-05-08 05:28 | 45.42681 | 56.44828 | 36974 ft | 443 kts | 247° |
| 2026-05-08 05:29 | 45.40520 | 56.36608 | 36974 ft | 443 kts | 247° |
| 2026-05-08 05:29 | 45.38373 | 56.28470 | 36974 ft | 442 kts | 247° |
| 2026-05-08 05:30 | 45.36206 | 56.20286 | 36974 ft | 442 kts | 247° |
| 2026-05-08 05:30 | 45.34034 | 56.12110 | 36974 ft | 442 kts | 246° |
| 2026-05-08 05:31 | 45.31857 | 56.03944 | 36979 ft | 442 kts | 246° |
| 2026-05-08 05:31 | 45.29673 | 55.95780 | 36980 ft | 442 kts | 246° |
| 2026-05-08 05:32 | 45.27484 | 55.87623 | 36983 ft | 443 kts | 246° |
| 2026-05-08 05:32 | 45.25277 | 55.79431 | 36974 ft | 444 kts | 246° |
| 2026-05-08 05:33 | 45.23065 | 55.71243 | 36978 ft | 444 kts | 246° |
| 2026-05-08 05:33 | 45.20847 | 55.63065 | 36985 ft | 445 kts | 246° |
| 2026-05-08 05:34 | 45.18620 | 55.54880 | 36980 ft | 445 kts | 246° |
| 2026-05-08 05:34 | 45.16384 | 55.46692 | 36981 ft | 445 kts | 246° |
| 2026-05-08 05:35 | 45.14143 | 55.38515 | 36981 ft | 445 kts | 246° |
| 2026-05-08 05:35 | 45.11899 | 55.30351 | 36991 ft | 445 kts | 246° |
| 2026-05-08 05:36 | 45.09538 | 55.22254 | 36982 ft | 444 kts | 241° |
| 2026-05-08 05:36 | 45.06054 | 55.15101 | 36979 ft | 442 kts | 227° |
| 2026-05-08 05:37 | 45.01642 | 55.09028 | 36981 ft | 443 kts | 223° |
| 2026-05-08 05:37 | 44.97081 | 55.03177 | 36976 ft | 443 kts | 223° |
| 2026-05-08 05:38 | 44.92523 | 54.97358 | 36981 ft | 442 kts | 223° |
| 2026-05-08 05:38 | 44.88010 | 54.91561 | 36983 ft | 442 kts | 223° |
| 2026-05-08 05:39 | 44.83445 | 54.85684 | 36990 ft | 442 kts | 223° |
| 2026-05-08 05:39 | 44.78940 | 54.79892 | 36993 ft | 442 kts | 223° |
| 2026-05-08 05:40 | 44.74394 | 54.74061 | 36982 ft | 443 kts | 223° |
| 2026-05-08 05:40 | 44.69839 | 54.68233 | 36991 ft | 443 kts | 223° |
| 2026-05-08 05:41 | 44.65553 | 54.62044 | 36988 ft | 442 kts | 232° |
| 2026-05-08 05:41 | 44.61915 | 54.55057 | 36998 ft | 443 kts | 234° |
| 2026-05-08 05:42 | 44.58392 | 54.47951 | 37000 ft | 444 kts | 234° |
| 2026-05-08 05:42 | 44.54876 | 54.40844 | 36999 ft | 444 kts | 234° |
| 2026-05-08 05:43 | 44.51340 | 54.33751 | 36993 ft | 444 kts | 234° |
| 2026-05-08 05:43 | 44.47787 | 54.26664 | 36981 ft | 445 kts | 234° |
| 2026-05-08 05:44 | 44.44238 | 54.19609 | 37007 ft | 443 kts | 234° |
| 2026-05-08 05:44 | 44.40686 | 54.12564 | 37010 ft | 443 kts | 234° |
| 2026-05-08 05:45 | 44.37136 | 54.05536 | 36922 ft | 442 kts | 234° |
| 2026-05-08 05:45 | 44.33591 | 53.98538 | 37007 ft | 439 kts | 234° |
| 2026-05-08 05:46 | 44.30071 | 53.91605 | 37011 ft | 438 kts | 234° |
| 2026-05-08 05:46 | 44.26546 | 53.84678 | 37012 ft | 438 kts | 234° |
| 2026-05-08 05:47 | 44.23016 | 53.77758 | 37014 ft | 438 kts | 234° |
| 2026-05-08 05:47 | 44.19485 | 53.70852 | 37020 ft | 438 kts | 234° |
| 2026-05-08 05:48 | 44.15944 | 53.63943 | 37019 ft | 438 kts | 234° |
| 2026-05-08 05:48 | 44.12405 | 53.57055 | 37025 ft | 438 kts | 234° |
| 2026-05-08 05:49 | 44.08855 | 53.50161 | 37024 ft | 438 kts | 234° |
| 2026-05-08 05:49 | 44.05294 | 53.43262 | 37027 ft | 440 kts | 234° |
| 2026-05-08 05:50 | 44.01720 | 53.36355 | 37025 ft | 440 kts | 234° |
| 2026-05-08 05:50 | 43.98143 | 53.29459 | 37026 ft | 440 kts | 234° |
| 2026-05-08 05:51 | 43.94560 | 53.22566 | 37025 ft | 441 kts | 234° |
| 2026-05-08 05:51 | 43.90962 | 53.15661 | 37027 ft | 442 kts | 234° |
| 2026-05-08 05:52 | 43.87354 | 53.08754 | 37030 ft | 442 kts | 234° |
| 2026-05-08 05:52 | 43.83740 | 53.01855 | 37028 ft | 442 kts | 234° |
| 2026-05-08 05:53 | 43.80155 | 52.95028 | 37035 ft | 440 kts | 234° |
| 2026-05-08 05:53 | 43.76555 | 52.88190 | 37040 ft | 440 kts | 233° |
| 2026-05-08 05:54 | 43.73535 | 52.82464 | 37040 ft | 440 kts | 233° |
| 2026-05-08 05:54 | 43.69927 | 52.75639 | 37041 ft | 440 kts | 233° |
| 2026-05-08 05:55 | 43.66325 | 52.68839 | 37022 ft | 438 kts | 233° |
| 2026-05-08 05:55 | 43.62725 | 52.62069 | 37041 ft | 437 kts | 233° |
| 2026-05-08 05:56 | 43.59121 | 52.55330 | 37046 ft | 436 kts | 233° |
| 2026-05-08 05:56 | 43.55509 | 52.48593 | 37047 ft | 437 kts | 233° |
| 2026-05-08 05:57 | 43.51890 | 52.41851 | 37049 ft | 438 kts | 233° |
| 2026-05-08 05:57 | 43.48315 | 52.35207 | 37053 ft | 438 kts | 233° |
| 2026-05-08 05:58 | 43.44663 | 52.28434 | 37059 ft | 438 kts | 233° |
| 2026-05-08 05:58 | 43.41030 | 52.21712 | 37059 ft | 438 kts | 233° |
| 2026-05-08 05:59 | 43.37388 | 52.14987 | 37061 ft | 438 kts | 233° |
| 2026-05-08 05:59 | 43.33740 | 52.08269 | 37061 ft | 438 kts | 233° |
| 2026-05-08 06:00 | 43.30092 | 52.01564 | 37062 ft | 438 kts | 233° |
| 2026-05-08 06:00 | 43.26434 | 51.94856 | 37067 ft | 439 kts | 232° |
| 2026-05-08 06:01 | 43.22777 | 51.88166 | 37067 ft | 439 kts | 232° |
| 2026-05-08 06:01 | 43.19112 | 51.81477 | 37066 ft | 439 kts | 232° |
| 2026-05-08 06:02 | 43.15438 | 51.74787 | 37077 ft | 439 kts | 232° |
| 2026-05-08 06:02 | 43.11760 | 51.68105 | 37066 ft | 440 kts | 232° |
| 2026-05-08 06:03 | 43.08071 | 51.61418 | 37070 ft | 440 kts | 232° |
| 2026-05-08 06:03 | 43.04383 | 51.54746 | 37070 ft | 440 kts | 232° |
| 2026-05-08 06:04 | 43.00687 | 51.48072 | 37098 ft | 441 kts | 232° |
| 2026-05-08 06:04 | 42.96992 | 51.41378 | 37044 ft | 442 kts | 232° |
| 2026-05-08 06:05 | 42.93299 | 51.34674 | 37058 ft | 441 kts | 232° |
| 2026-05-08 06:05 | 42.89618 | 51.27978 | 37109 ft | 440 kts | 232° |
| 2026-05-08 06:06 | 42.85942 | 51.21286 | 37069 ft | 441 kts | 232° |
| 2026-05-08 06:06 | 42.82283 | 51.14603 | 37179 ft | 438 kts | 232° |
| 2026-05-08 06:07 | 42.78665 | 51.07973 | 37288 ft | 436 kts | 232° |
| 2026-05-08 06:07 | 42.75043 | 51.01329 | 37153 ft | 439 kts | 232° |
| 2026-05-08 06:08 | 42.71404 | 50.94663 | 37042 ft | 442 kts | 232° |
| 2026-05-08 06:08 | 42.67753 | 50.87990 | 37155 ft | 439 kts | 232° |
| 2026-05-08 06:09 | 42.64116 | 50.81349 | 37219 ft | 438 kts | 232° |
| 2026-05-08 06:09 | 42.60463 | 50.74695 | 37072 ft | 441 kts | 232° |
| 2026-05-08 06:10 | 42.56780 | 50.68004 | 37015 ft | 442 kts | 232° |
| 2026-05-08 06:10 | 42.53112 | 50.61346 | 37163 ft | 439 kts | 232° |
| 2026-05-08 06:11 | 42.49461 | 50.54711 | 37165 ft | 440 kts | 232° |
| 2026-05-08 06:11 | 42.45794 | 50.48030 | 36966 ft | 444 kts | 232° |
| 2026-05-08 06:12 | 42.42118 | 50.41299 | 36996 ft | 443 kts | 232° |
| 2026-05-08 06:12 | 42.38487 | 50.34593 | 37161 ft | 440 kts | 232° |
| 2026-05-08 06:13 | 42.34887 | 50.27882 | 37078 ft | 443 kts | 233° |
| 2026-05-08 06:13 | 42.33079 | 50.24489 | 36953 ft | 446 kts | 233° |
| 2026-05-08 06:13 | 42.31270 | 50.21076 | 36899 ft | 447 kts | 233° |
| 2026-05-08 06:14 | 42.27687 | 50.14253 | 37038 ft | 443 kts | 233° |
| 2026-05-08 06:14 | 42.24163 | 50.07452 | 37148 ft | 442 kts | 234° |
| 2026-05-08 06:15 | 42.20657 | 50.00597 | 36969 ft | 446 kts | 234° |
| 2026-05-08 06:15 | 42.17159 | 49.93662 | 36916 ft | 447 kts | 234° |
| 2026-05-08 06:16 | 42.13719 | 49.86737 | 37100 ft | 443 kts | 235° |
| 2026-05-08 06:16 | 42.10330 | 49.79799 | 37079 ft | 444 kts | 235° |
| 2026-05-08 06:17 | 42.09213 | 49.77486 | 37014 ft | 446 kts | 236° |